Meteo4 di Emilio Bellavite Il primo osservatorio Meteo di Verona  
 
giovedý 25 luglio 2024
 
 
dati in tempo reale
Di seguito i dati in tempo reale delle stazioni on line della rete di Meteo4. Cliccando sul link della stazione, ove presente, si accederà al sito web personale.
Stazioni online
Località Giorno Ora Temp. Umid. Relat. Dew Point Press. Atm. Velocità Vento Direz. Vento Precip. Temp.
Min
Temp.
Max
Abano (PD) 25/07/24 05.55 22.9 °C 78 % 18.9 °C 1011.4 hPa 0.0 Km/h --- 0.0 mm  22.8 °C 25.2 °C
Acquapendente (VT) 25/07/24 05.58 18.1 °C 84 % 15.3 °C 1010.6 hPa 0.0 Km/h NE 0.0 mm  18.1 °C 22.4 °C
Acquaviva delle Fonti (BA) 25/07/24 05.58 22.9 °C 75 % 18.3 °C 1008.9 hPa 0.6 Km/h NE 0.0 mm  22.9 °C 25.1 °C
Agordo ARPAV (BL) 25/07/24 03.30 17.7 °C 95 % 16.9 °C  hPa 2.9 Km/h SSE 0.0 mm  17.6 °C 17.8 °C
Ala (TN) 25/07/24 05.58 18.8 °C 94 % 17.8 °C 1011.9 hPa 0.0 Km/h E 0.0 mm  18.6 °C 19.1 °C
Ala loc. Ronchi (TN) 25/07/24 05.30 17.1 °C 88 % 15.1 °C  hPa 0.4 Km/h ENE 0.0 mm  16.4 °C 18.4 °C
Albisano (VR) 25/07/24 05.45 23.3 °C 68 % 17.0 °C 1011.6 hPa 4.6 Km/h ESE 0.0 mm  21.4 °C 24.2 °C
Aldeno loc. San Zeno (TN) 25/07/24 05.30 19.1 °C 100 % 19.1 °C  hPa 2.2 Km/h N 0.0 mm  18.1 °C 19.4 °C
Alpe del Tumulo (BZ) 25/07/24 05.50 6.8 °C 71 % 1.9 °C  hPa 9.4 Km/h NNE  mm  6.8 °C 10.5 °C
Alpe di Siusi Zallinger (BZ) 25/07/24 05.50 9.9 °C 73 % 5.3 °C 1015.3 hPa 2.9 Km/h NE 0.0 mm  9.7 °C 11.0 °C
Alta Val Martello (BZ) 25/07/24 05.50 10.3 °C 86 % 8.1 °C 1019.1 hPa 6.8 Km/h SSW 0.0 mm  9.9 °C 11.5 °C
Ancona loc. Brecce Bianche (AN) 25/07/24 05.55 21.6 °C 87 % 19.3 °C 1012.9 hPa 0.0 Km/h NW 0.0 mm  21.4 °C 24.4 °C
Anterselva di Sopra (BZ) 25/07/24 05.50 11.1 °C 92 % 9.8 °C 1016.5 hPa 8.3 Km/h ENE 0.0 mm  10.5 °C 12.4 °C
Anticima Cima Libera (BZ) 25/07/24 05.50 2.3 °C 13 % -23.3 °C  hPa 20.5 Km/h WNW  mm  0.7 °C 2.3 °C
Arabba ARPAV (BL) 25/07/24 05.00 10.6 °C 73 % 6.0 °C  hPa 4.3 Km/h W 0.0 mm  10.6 °C 11.1 °C
Arenzano (GE) 25/07/24 05.58 25.6 °C 81 % 22.0 °C 1010.0 hPa 0.0 Km/h WSW 0.0 mm  25.3 °C 27.1 °C
Arquà Polesine (RO) 25/07/24 05.55 21.9 °C 90 % 20.2 °C 1013.2 hPa 0.0 Km/h - 0.0 mm  21.9 °C 24.5 °C
Arzignano loc. Castello (VI) 24/07/24 22.00 23.3 °C 83 % 20.3 °C 1009.1 hPa 0.0 Km/h --- 8.6 mm  21.5 °C 31.8 °C
Arzignano Pugnello (VI) 25/07/24 05.55 22.2 °C 75 % 17.6 °C 1010.5 hPa 0.0 Km/h NE 0.0 mm  22.1 °C 23.1 °C
Asiago Rifugio Val Formica (VI) 25/07/24 05.55 11.7 °C 94 % 11.1 °C 1012.8 hPa 0.0 Km/h SSW 0.0 mm  11.5 °C 13.7 °C
Asiago aeroporto ARPAV (VI) 25/07/24 05.30 15.6 °C 89 % 13.8 °C 1014.3 hPa 2.5 Km/h WNW 0.0 mm  15.6 °C 17.2 °C
Auronzo ARPAV (BL) 25/07/24 05.30 12.3 °C 100 % 12.3 °C  hPa 1.8 Km/h SSE 0.0 mm  12.3 °C 13.9 °C
Avenza-Carrara (MS) 25/07/24 05.50 22.9 °C 87 % 20.7 °C 1010.1 hPa 3.2 Km/h WNW 0.0 mm  22.9 °C 25.9 °C
Avio (TN) 25/07/24 05.58 18.5 °C 88 % 16.5 °C 1012.2 hPa 0.0 Km/h NE 0.0 mm  17.8 °C 19.0 °C
Badia Calavena fraz. S. Andrea (VR) 25/07/24 05.44 17.7 °C 87 % 15.5 °C 1016.6 hPa 3.5 Km/h WNW 0.0 mm  17.3 °C 19.2 °C
Badia Calavena loc. San Valentino (VR) 25/07/24 05.58 19.7 °C 69 % 13.9 °C 1008.9 hPa 9.7 Km/h NNE 0.0 mm  19.7 °C 20.8 °C
Badia Cima Pisciadù (BZ) 25/07/24 05.40 4.7 °C 99 % 4.6 °C  hPa 18.0 Km/h WSW  mm  4.5 °C 5.6 °C
Badia Piz La Ila (BZ) 25/07/24 05.50 9.9 °C 63 % 3.2 °C  hPa 2.2 Km/h ENE  mm  9.9 °C 10.9 °C
Balbido (TN) 25/07/24 05.55 17.6 °C 91 % 16.1 °C 1019.5 hPa 2.7 Km/h WNW 0.0 mm  17.4 °C 18.9 °C
Barbiano Colma (BZ) 25/07/24 05.50 17.0 °C 73 % 12.1 °C 1014.7 hPa 9.0 Km/h N 0.0 mm  16.7 °C 20.3 °C
Barcellona P.G. Centro (ME) 25/07/24 05.58 24.1 °C 76 % 19.6 °C 1009.2 hPa 9.7 Km/h SSW 0.0 mm  23.8 °C 26.8 °C
Barcellona Pozzo di Gotto (ME) 25/07/24 02.06 25.6 °C 84 % 22.7 °C 1011.4 hPa 4.7 Km/h SSW 0.0 mm  25.6 °C 26.6 °C
Bassano del Grappa ARPAV (VI) 25/07/24 05.30 23.5 °C 69 % 17.5 °C  hPa 13.0 Km/h N 0.0 mm  23.5 °C 24.3 °C
Bellaria Igea Marina (RN) 25/07/24 05.58 21.7 °C 81 % 18.3 °C 1009.8 hPa 0.0 Km/h WNW 0.0 mm  21.7 °C 26.2 °C
Belluno - aeroporto ARPAV (BL) 25/07/24 05.30 18.6 °C 97 % 18.1 °C 1015.1 hPa 5.0 Km/h NNE 0.0 mm  17.7 °C 19.4 °C
Besozzo (VA) 25/07/24 05.58 21.9 °C 73 % 16.8 °C 0.0 hPa 1.6 Km/h NNW 0.0 mm  21.3 °C 23.3 °C
Bibione ARPAV (VE) 25/07/24 05.30 25.1 °C 65 % 18.0 °C  hPa 13.3 Km/h NE 0.0 mm  23.4 °C 27.0 °C
Bisignano (CS) 25/07/24 05.55 23.2 °C 70 % 17.4 °C 1009.7 hPa 1.4 Km/h NNE 0.0 mm  23.2 °C 25.2 °C
Bolognano di Arco (TN) 25/07/24 05.55 19.3 °C 95 % 18.5 °C 1011.9 hPa 0.0 Km/h WNW 0.2 mm  18.9 °C 19.6 °C
Bolzano (BZ) 25/07/24 05.40 19.0 °C 88 % 17.0 °C 1013.8 hPa 3.2 Km/h WSW 0.0 mm  18.8 °C 21.6 °C
Bonorva (SS) 25/07/24 04.05 19.6 °C 85 % 17.0 °C 1010.0 hPa 6.4 Km/h S 0.0 mm  19.1 °C 20.1 °C
Borgo Pianon (BL) 25/07/24 05.54 14.8 °C 99 % 14.6 °C 0.0 hPa 0.0 Km/h - 0.0 mm  14.5 °C 15.3 °C
Borgo Valsugana (TN) 25/07/24 05.45 19.9 °C 89 % 18.0 °C 1012.7 hPa 0.0 Km/h ESE 0.0 mm  19.9 °C 20.7 °C
Bosco Chiesanuova ARPAV (VR) 25/07/24 05.30 17.1 °C 67 % 10.9 °C  hPa 9.7 Km/h NNE 0.0 mm  17.1 °C 18.6 °C
Bovolenta ARPAV (PD) 25/07/24 05.30 22.5 °C  %  °C  hPa  Km/h --- 0.0 mm  22.4 °C 23.9 °C
Bovolone2 (VR) 25/07/24 05.55 24.2 °C 71 % 18.6 °C 1012.6 hPa 12.6 Km/h ENE 0.0 mm  24.1 °C 25.1 °C
Braies Alpe Cavallo (BZ) 25/07/24 05.50 7.6 °C 75 % 3.5 °C  hPa 6.1 Km/h WNW  mm  7.5 °C 9.3 °C
Brebbia (VA) 24/07/24 14.00 32.1 °C 38 % 16.0 °C 1010.3 hPa 3.2 Km/h SSW 0.0 mm  20.9 °C 32.2 °C
Brendola ARPAV (VI) 25/07/24 05.30 24.6 °C 62 % 16.8 °C  hPa 6.5 Km/h NNE 0.0 mm  23.4 °C 25.0 °C
Bresega (PD) 25/07/24 05.55 22.3 °C 82 % 18.9 °C 1011.2 hPa 0.0 Km/h N 0.0 mm  22.0 °C 24.4 °C
Bressanone (BZ) 25/07/24 05.50 16.4 °C 75 % 12.0 °C 1014.9 hPa 1.4 Km/h SE 0.0 mm  16.4 °C 21.9 °C
Brolo c/da Parrazzà (ME) 25/07/24 05.55 22.9 °C 68 % 16.7 °C 1009.8 hPa 11.0 Km/h SE 0.0 mm  22.7 °C 24.5 °C
Bronzolo (BZ) 25/07/24 05.40 18.9 °C 100 % 18.9 °C 1015.7 hPa 2.9 Km/h NE 0.0 mm  17.9 °C 20.9 °C
Brunico (BZ) 25/07/24 05.40 11.4 °C 98 % 11.1 °C 1017.8 hPa 2.9 Km/h NNE 0.0 mm  11.3 °C 14.9 °C
Brustolé ARPAV (VI) 25/07/24 05.30 19.8 °C  %  °C  hPa  Km/h --- 0.0 mm  19.8 °C 20.5 °C
Budoia (PN) 25/07/24 05.46 22.0 °C 72 % 16.7 °C 1012.6 hPa 4.8 Km/h NW 0.8 mm  22.0 °C 24.2 °C
Budoia Malga Campo (PN) 25/07/24 05.55 13.6 °C 88 % 11.6 °C 1016.3 hPa 1.0 Km/h SSE 0.0 mm  13.3 °C 14.8 °C
Caldaro Pianizza di Sopra (BZ) 25/07/24 05.40 19.0 °C 70 % 13.4 °C 1014.7 hPa 4.3 Km/h NNE 0.0 mm  18.5 °C 20.1 °C
Calliano (TN) 25/07/24 05.58 18.8 °C 94 % 17.8 °C 1012.5 hPa 6.4 Km/h S 0.0 mm  18.2 °C 18.9 °C
Calmasino ARPAV (VR) 25/07/24 05.30 21.5 °C 82 % 18.3 °C 1012.0 hPa 14.8 Km/h NNE 0.0 mm  21.3 °C 22.7 °C
Caltabellotta (AG) 25/07/24 05.50 24.4 °C 42 % 10.7 °C 1007.2 hPa 11.0 Km/h W 0.0 mm  23.7 °C 24.4 °C
Campo Tures Molini (BZ) 25/07/24 05.50 11.0 °C 100 % 11.0 °C 1017.9 hPa 1.1 Km/h SSE 0.0 mm  11.0 °C 17.6 °C
Campodarsego ARPAV (PD) 25/07/24 05.30 24.3 °C 70 % 18.5 °C  hPa 8.6 Km/h NE 0.0 mm  24.2 °C 24.8 °C
Campomolon ARPAV (VI) 25/07/24 05.00 12.4 °C  %  °C  hPa 4.3 Km/h NNE  mm  12.4 °C 13.3 °C
Canazei loc. Ciampac (TN) 25/07/24 05.30 10.1 °C 90 % 8.5 °C  hPa 5.0 Km/h S 0.0 mm  6.5 °C 10.3 °C
Canazei loc. Gries (TN) 25/07/24 05.30 10.9 °C 82 % 7.9 °C  hPa 2.2 Km/h E 0.0 mm  10.5 °C 12.6 °C
Cansiglio - Tramedere ARPAV (BL) 25/07/24 05.30 13.1 °C 100 % 13.1 °C  hPa 3.6 Km/h SW 0.2 mm  13.1 °C 14.2 °C
Caoria (TN) 25/07/24 05.30 16.2 °C 98 % 15.9 °C  hPa 1.4 Km/h WNW 0.0 mm  16.0 °C 17.5 °C
Capanna Sinel (TN) 25/07/24 05.05 10.1 °C 100 % 10.1 °C 1018.3 hPa 5.0 Km/h N 0.0 mm  9.9 °C 12.9 °C
Cappella Maggiore (TV) 25/07/24 05.54 21.2 °C 83 % 18.1 °C 1009.1 hPa 0.3 Km/h NNW 0.0 mm  21.0 °C 23.4 °C
Caprarola Centro Storico (VT) 24/07/24 17.39 31.4 °C 31 % 12.2 °C 1007.0 hPa 3.7 Km/h N 0.0 mm  24.3 °C 36.5 °C
Caprarola San Rocco (VT) 25/07/24 05.58 20.6 °C 84 % 17.8 °C 1009.5 hPa 5.4 Km/h E 0.0 mm  20.6 °C 24.0 °C
Caprile ARPAV (BL) 25/07/24 05.00 12.7 °C 85 % 10.2 °C  hPa 3.6 Km/h NNW 0.0 mm  12.2 °C 13.8 °C
Caprino (VR) 25/07/24 05.55 20.9 °C 74 % 16.1 °C 1055.1 hPa 4.8 Km/h NNE 3.4 mm  19.2 °C 23.1 °C
Caprino loc. Platano ARPAV (VR) 25/07/24 05.30 20.3 °C 87 % 18.1 °C  hPa 6.8 Km/h NNE 8.6 mm  19.5 °C 22.7 °C
Careser loc. Diga (TN) 25/07/24 05.30 7.2 °C  %  °C  hPa 0.0 Km/h --- 0.0 mm  6.8 °C 9.0 °C
Carezza (BZ) 25/07/24 02.34 12.2 °C 84 % 9.6 °C 1024.0 hPa 0.0 Km/h NNE 0.0 mm  11.2 °C 12.5 °C
Cartigliano (VI) 25/07/24 05.55 23.7 °C 67 % 17.2 °C 1012.2 hPa 4.8 Km/h N 0.0 mm  23.7 °C 25.4 °C
Casaleone (VR) 25/07/24 05.55 22.9 °C 80 % 19.3 °C 1012.4 hPa 9.4 Km/h NE 0.0 mm  22.4 °C 24.8 °C
Casera Coltrondo ARPAV (BL) 25/07/24 05.00 9.4 °C 85 % 7.0 °C  hPa 1.8 Km/h NW  mm  9.4 °C 11.1 °C
Casera Doana ARPAV (BL) 25/07/24 05.00 11.0 °C 89 % 9.3 °C  hPa 3.6 Km/h SW  mm  11.0 °C 12.4 °C
Casera Palantina ARPAV (BL) 25/07/24 05.00 13.8 °C 82 % 10.8 °C  hPa 1.4 Km/h SE  mm  13.8 °C 14.7 °C
Casera Pian dei Grassi Col. Visetin (TV) 25/07/24 05.46 16.2 °C 77 % 11.7 °C 0.0 hPa 0.0 Km/h - 0.0 mm  16.1 °C 18.1 °C
Casies Cima Regola (BZ) 25/07/24 05.50 4.7 °C 82 % 1.9 °C  hPa 14.0 Km/h W  mm  4.3 °C 5.6 °C
Casies Malga Pfinn (BZ) 25/07/24 05.40 8.2 °C 83 % 5.5 °C  hPa 6.5 Km/h WSW  mm  7.4 °C 8.9 °C
Casotto (VI) 25/07/24 05.55 19.4 °C 89 % 17.5 °C 1011.2 hPa 0.0 Km/h E 0.0 mm  19.4 °C 20.4 °C
Cassone (VR) 25/07/24 05.26 21.2 °C 84 % 18.5 °C 1012.7 hPa 4.5 Km/h NE 12.4 mm  20.5 °C 23.1 °C
Castana ARPAV (VI) 25/07/24 05.30 17.4 °C 95 % 16.6 °C  hPa 3.2 Km/h W 0.0 mm  17.4 °C 18.5 °C
Castel d'Azzano (VR) 25/07/24 05.44 24.6 °C 63 % 17.2 °C 1012.3 hPa 0.0 Km/h E 0.0 mm  23.2 °C 26.3 °C
Castel d'Azzano2 (VR) 25/07/24 05.55 23.4 °C 68 % 17.1 °C 1012.7 hPa 0.4 Km/h E 0.0 mm  23.2 °C 26.6 °C
Castelferro (AL) 25/07/24 05.56 20.8 °C 66 % 14.2 °C 1010.9 hPa 0.0 Km/h W 0.0 mm  20.8 °C 23.9 °C
Castelfranco Veneto ARPAV (TV) 25/07/24 05.30 23.2 °C 79 % 19.3 °C  hPa 4.3 Km/h N 0.0 mm  23.2 °C 24.9 °C
Castello Tesino loc. Le Parti (TN) 25/07/24 05.30 16.4 °C 99 % 16.2 °C  hPa 1.1 Km/h N 0.0 mm  16.3 °C 17.6 °C
Castelnovo Bariano ARPAV (RO) 25/07/24 05.30 21.0 °C 93 % 19.8 °C  hPa 5.0 Km/h NE 0.0 mm  21.0 °C 23.2 °C
Castelnuovo del Garda ARPAV (VR) 25/07/24 05.30 20.9 °C 82 % 17.7 °C  hPa 4.3 Km/h NW 0.0 mm  20.9 °C 24.3 °C
Castelnuovo V.C. (PI) 25/07/24 05.58 21.0 °C 67 % 14.6 °C 1008.6 hPa 0.4 Km/h ESE 0.0 mm  19.1 °C 21.3 °C
Castiglione (VR) 25/07/24 05.55 25.3 °C 63 % 17.7 °C 1012.6 hPa 11.9 Km/h NE 0.0 mm  21.1 °C 26.5 °C
Castiglione della Pescaia Vaticino (GR) 25/07/24 05.55 24.5 °C 62 % 16.7 °C 1005.2 hPa 0.0 Km/h [wind 0.0 mm  24.5 °C 27.0 °C
Cavalese (TN) 24/07/24 13.30 24.9 °C 51 % 14.1 °C  hPa 13.0 Km/h W 0.0 mm  14.8 °C 25.7 °C
Cavallino Treporti ARPAV (VE) 25/07/24 05.30 24.2 °C 72 % 18.8 °C 1012.6 hPa 7.2 Km/h ENE 0.0 mm  23.8 °C 25.6 °C
Cavaria con Premezzo (VA) 25/07/24 05.55 23.8 °C 77 % 19.5 °C 1011.0 hPa 4.8 Km/h NNE 0.0 mm  23.8 °C 25.7 °C
Cavarzere ARPAV (VE) 25/07/24 05.30 23.6 °C 85 % 20.9 °C  hPa 6.5 Km/h NE 0.0 mm  23.4 °C 24.2 °C
Cavazzale2 (VI) 25/07/24 05.59 20.7 °C 94 % 19.7 °C 1013.1 hPa 0.0 Km/h NNW 0.0 mm  20.7 °C 25.0 °C
Cefalù (PA) 25/07/24 05.50 23.5 °C 65 % 16.5 °C 1009.5 hPa 1.4 Km/h W 0.0 mm  23.3 °C 24.8 °C
Cembra (TN) 25/07/24 05.30 17.5 °C 89 % 15.7 °C  hPa 2.2 Km/h W 0.0 mm  17.3 °C 19.3 °C
Cerea (VR) 25/07/24 00.30 24.7 °C 82 % 21.4 °C 1011.6 hPa 1.6 Km/h ENE 0.0 mm  24.6 °C 25.5 °C
Cerea2 (VR) 25/07/24 05.55 23.4 °C 77 % 19.1 °C 1013.1 hPa 10.0 Km/h NE 0.0 mm  23.2 °C 25.8 °C
Chiampo (VI) 25/07/24 05.55 20.4 °C 84 % 17.6 °C 1011.3 hPa 0.0 Km/h WSW 0.0 mm  19.7 °C 21.2 °C
Chieti (CH) 25/07/24 05.55 22.2 °C 71 % 16.7 °C 1012.4 hPa 8.0 Km/h SSW 0.0 mm  21.9 °C 25.4 °C
Chioggia - Sant'Anna ARPAV (VE) 25/07/24 05.30 26.2 °C 59 % 17.5 °C  hPa 11.9 Km/h ESE 0.0 mm  22.4 °C 26.3 °C
Chioggia Centro ARPAV (VE) 25/07/24 05.30 27.4 °C  %  °C  hPa  Km/h --- 0.0 mm  27.4 °C 28.1 °C
Cima Pradazzo ARPAV (BL) 25/07/24 05.00 9.3 °C 95 % 8.5 °C  hPa 13.3 Km/h WSW  mm  9.3 °C 9.9 °C
Cismon del Grappa loc. Corlo (VI) 25/07/24 05.58 19.3 °C 92 % 18.0 °C 1016.1 hPa 2.2 Km/h NW 0.0 mm  19.3 °C 20.5 °C
Civita Castellana (VT) 25/07/24 05.55 21.6 °C 83 % 18.6 °C 1011.0 hPa 0.0 Km/h NW 0.0 mm  21.5 °C 26.1 °C
Clusio Kloangruebes (BZ) 25/07/24 05.50 5.9 °C 70 % 0.9 °C  hPa 5.4 Km/h WNW  mm  5.5 °C 8.5 °C
Codroipo (UD) 25/07/24 05.54 22.3 °C 72 % 17.0 °C 1012.5 hPa 0.6 Km/h ENE 0.0 mm  21.9 °C 24.1 °C
Cogollo del Cengio (VI) 25/07/24 05.43 21.0 °C 79 % 17.2 °C 1012.4 hPa 3.3 Km/h N 0.0 mm  21.0 °C 22.1 °C
Col Dei Baldi ARPAV (BL) 25/07/24 05.00 11.2 °C 81 % 8.1 °C 1013.0 hPa 1.1 Km/h ESE  mm  10.1 °C 11.2 °C
Col Indes - Tambre ARPAV (BL) 25/07/24 05.30 15.4 °C 84 % 12.7 °C  hPa 4.0 Km/h ENE 0.0 mm  15.3 °C 17.1 °C
Cologna Veneta Sant'Andrea (VR) 25/07/24 05.58 24.2 °C 73 % 19.1 °C 1011.7 hPa 8.0 Km/h ENE 0.0 mm  22.7 °C 24.9 °C
Conegliano ARPAV (TV) 25/07/24 05.30 24.5 °C 61 % 16.5 °C  hPa 6.1 Km/h NE 0.0 mm  24.5 °C 26.1 °C
Conselice (RA) 25/07/24 05.54 22.5 °C 89 % 20.6 °C 1010.3 hPa 0.3 Km/h N 0.0 mm  22.5 °C 25.3 °C
Contrà Doppio ARPAV (VI) 25/07/24 05.30 15.2 °C  %  °C  hPa  Km/h --- 0.0 mm  15.2 °C 17.6 °C
Contrada Italiani (VR) 25/07/24 05.44 20.4 °C 65 % 13.7 °C 1024.7 hPa 9.5 Km/h ENE 0.0 mm  20.0 °C 21.3 °C
Cornedo Vicentino loc. Muzzolon (VI) 25/07/24 05.44 19.8 °C 88 % 17.7 °C 1015.9 hPa 0.3 Km/h SE 0.0 mm  19.7 °C 21.2 °C
Corno del Renon (BZ) 25/07/24 05.50 8.4 °C 72 % 3.6 °C  hPa 12.6 Km/h WNW  mm  8.4 °C 10.2 °C
Cortina d'Ampezzo - Gilardon ARPAV (BL) 25/07/24 05.00 13.2 °C 88 % 11.3 °C  hPa 2.5 Km/h NW 0.0 mm  12.4 °C 13.4 °C
Corvara (BZ) 25/07/24 05.40 9.3 °C 87 % 7.2 °C 1017.2 hPa 3.6 Km/h SSE 0.0 mm  9.3 °C 11.2 °C
Costa di Vittorio Veneto (TV) 25/07/24 05.54 22.3 °C 76 % 17.8 °C 1010.8 hPa 0.0 Km/h NE 0.0 mm  22.1 °C 24.1 °C
Crespadoro ARPAV (VI) 25/07/24 05.30 17.2 °C 94 % 16.2 °C  hPa 5.0 Km/h W 0.0 mm  17.2 °C 18.7 °C
Crespano del Grappa ARPAV (VI) 25/07/24 05.30 20.5 °C 79 % 16.7 °C  hPa 4.3 Km/h NNW 0.0 mm  20.4 °C 21.8 °C
Cresta del Giovo (BZ) 25/07/24 05.50 8.7 °C 89 % 7.0 °C  hPa 14.8 Km/h NE  mm  8.3 °C 9.4 °C
Crosara ARPAV (VI) 25/07/24 05.30 20.4 °C  %  °C  hPa  Km/h --- 0.0 mm  20.4 °C 21.9 °C
Curon Belpiano (BZ) 25/07/24 05.50 7.1 °C 86 % 4.9 °C  hPa 0.0 Km/h W  mm  6.5 °C 9.5 °C
Curon Cima Undici (BZ) 25/07/24 05.50 4.3 °C 47 % -6.0 °C  hPa 26.6 Km/h W  mm  2.9 °C 4.9 °C
Daone loc. Malga Bissina (TN) 25/07/24 05.30 12.6 °C 100 % 12.6 °C  hPa 0.0 Km/h --- 0.0 mm  11.5 °C 13.2 °C
Dobbiaco (BZ) 25/07/24 05.40 10.2 °C 94 % 9.3 °C 1018.5 hPa 2.5 Km/h E 0.0 mm  9.8 °C 12.9 °C
Dobbiaco Cima Piatta Alta (BZ) 25/07/24 05.50 3.6 °C 89 % 2.0 °C  hPa 2.2 Km/h WNW  mm  3.5 °C 4.5 °C
Dolcé ARPAV (VR) 25/07/24 05.30 19.4 °C 100 % 19.4 °C  hPa 12.2 Km/h NE 4.0 mm  19.3 °C 20.5 °C
Doline de Vassieux en Vercors (Drome) 25/07/24 05.30 3.5 °C 83 % 0.1 °C 0.0 hPa 0.0 Km/h - 0.0 mm  3.5 °C 13.1 °C
Domegge di Cadore ARPAV (BL) 25/07/24 05.00 15.2 °C 100 % 15.2 °C  hPa 2.2 Km/h WSW 0.0 mm  15.1 °C 16.1 °C
Dorno (PV) 25/07/24 05.59 22.6 °C 81 % 19.2 °C 1011.0 hPa 4.1 Km/h E 0.0 mm  22.6 °C 25.8 °C
Dos Del Sabion loc. Monte Grual (TN) 25/07/24 05.30 10.9 °C 98 % 10.6 °C  hPa 1.8 Km/h SW 0.0 mm  10.7 °C 12.4 °C
Dossobuono (VR) 25/07/24 05.58 24.7 °C 72 % 19.3 °C 1011.9 hPa 4.8 Km/h NE 0.0 mm  24.4 °C 26.9 °C
Dro loc. Marocche (TN) 19/07/24 13.00 32.9 °C 44 % 19.0 °C  hPa 7.9 Km/h SW 0.0 mm  32.9 °C 32.9 °C
El Masnou (Barcellona) 25/07/24 05.55 24.5 °C 71 % 18.9 °C 1013.7 hPa 0.0 Km/h N 0.0 mm  24.5 °C 26.6 °C
Eraclea ARPAV (VE) 25/07/24 05.30 21.3 °C 90 % 19.6 °C  hPa 6.8 Km/h N 0.0 mm  20.8 °C 23.8 °C
Esine (BS) 25/07/24 05.55 21.7 °C 78 % 17.7 °C 1011.3 hPa 6.5 Km/h ENE 0.0 mm  21.1 °C 22.3 °C
Faedo ARPAV (PD) 25/07/24 05.30 22.0 °C 78 % 18.0 °C  hPa 1.8 Km/h NW 0.0 mm  22.0 °C 24.0 °C
Faida di Piné loc. Prada (TN) 25/07/24 05.55 15.1 °C 97 % 14.6 °C 1018.9 hPa 1.1 Km/h N 0.0 mm  13.9 °C 15.1 °C
Falcade ARPAV (BL) 25/07/24 05.00 14.2 °C 100 % 14.2 °C  hPa 3.6 Km/h S 0.0 mm  13.8 °C 14.6 °C
Faloria ARPAV (BL) 25/07/24 05.00 8.4 °C 100 % 8.4 °C  hPa 7.9 Km/h S 0.0 mm  8.4 °C 9.3 °C
Falzè di Piave (TV) 25/07/24 05.55 20.3 °C 89 % 18.4 °C 1013.2 hPa 0.0 Km/h --- 0.0 mm  20.3 °C 22.8 °C
Faverghera ARPAV (BL) 25/07/24 05.00 13.3 °C 83 % 10.5 °C  hPa 9.0 Km/h SSE  mm  13.3 °C 14.7 °C
Feltre ARPAV (BL) 25/07/24 05.30 19.1 °C 100 % 19.1 °C  hPa 1.1 Km/h SW 0.0 mm  19.1 °C 20.6 °C
Feltre Celarda (BL) 25/07/24 05.58 18.4 °C 93 % 17.3 °C 1014.0 hPa 0.0 Km/h S 0.0 mm  18.4 °C 19.9 °C
Fener ARPAV (TV) 25/07/24 05.30 21.0 °C  %  °C  hPa  Km/h --- 0.0 mm  21.0 °C 22.5 °C
Ferrara di Monte Baldo (VR) 25/07/24 05.33 15.4 °C 94 % 14.4 °C 999.7 hPa 2.8 Km/h NE 13.8 mm  15.3 °C 18.7 °C
Fiavè loc. Ballino (TN) 25/07/24 05.54 17.4 °C 90 % 15.7 °C 1011.7 hPa 1.0 Km/h NNE 0.0 mm  16.6 °C 17.7 °C
Fiè allo Sciliar (BZ) 25/07/24 05.50 16.0 °C 72 % 11.0 °C 1017.5 hPa 2.9 Km/h ENE 0.0 mm  16.0 °C 18.8 °C
Filo di Argenta (FE) 25/07/24 05.55 21.1 °C 91 % 19.6 °C 1011.6 hPa 0.0 Km/h N 0.0 mm  21.1 °C 24.9 °C
Fleres (BZ) 25/07/24 05.40 10.0 °C 98 % 9.7 °C 1018.0 hPa 1.4 Km/h NW 0.0 mm  10.0 °C 12.5 °C
Fogliano Redipuglia (GO) 25/07/24 05.55 23.5 °C 52 % 13.1 °C 1012.6 hPa 0.0 Km/h - 0.0 mm  23.2 °C 25.6 °C
Foligno (PG) 25/07/24 05.50 23.4 °C 60 % 15.2 °C 1008.8 hPa 6.4 Km/h E 0.0 mm  23.4 °C 27.1 °C
Follina ARPAV (TV) 24/07/24 23.00 20.3 °C 96 % 19.6 °C  hPa 1.4 Km/h NNW 0.2 mm  16.8 °C 29.5 °C
Fontanafredda (PN) 25/07/24 05.58 22.0 °C 76 % 17.6 °C 1012.3 hPa 4.5 Km/h ENE 0.0 mm  21.6 °C 23.7 °C
Fonte (TV) 25/07/24 05.55 22.4 °C 76 % 18.0 °C 1012.4 hPa 0.0 Km/h NE 0.0 mm  22.4 °C 24.6 °C
Forno di Zoldo - Campo ARPAV (BL) 25/07/24 05.00 15.1 °C 100 % 15.1 °C  hPa 5.0 Km/h WSW 0.0 mm  15.1 °C 15.5 °C
Fortezza Le Cave (BZ) 25/07/24 05.50 14.5 °C 74 % 9.9 °C 1014.8 hPa 18.7 Km/h WSW 0.0 mm  14.5 °C 18.5 °C
Fortogna ARPAV (BL) 25/07/24 05.30 17.8 °C  %  °C  hPa  Km/h --- 0.0 mm  17.8 °C 19.0 °C
Fossalta di Portogruaro ARPAV (VE) 25/07/24 05.30 21.2 °C 88 % 19.1 °C  hPa 7.2 Km/h NNE 0.0 mm  20.8 °C 24.0 °C
Fregona Malga Picotera (TV) 25/07/24 05.55 16.5 °C 83 % 13.6 °C 1012.5 hPa 0.0 Km/h N 0.0 mm  16.4 °C 18.4 °C
Fregona Osservatorio Astronomico Piadera (TV) 25/07/24 05.44 22.4 °C 66 % 15.7 °C 1015.2 hPa 0.0 Km/h NNW 0.0 mm  21.3 °C 23.7 °C
Fumane Contrada La Ca (VR) 25/07/24 05.30 22.3 °C 64 % 15.0 °C 1011.7 hPa 0.0 Km/h N 0.0 mm  22.3 °C 24.2 °C
Fundres (BZ) 25/07/24 05.40 12.2 °C 77 % 8.3 °C 1015.2 hPa 1.8 Km/h WSW 0.0 mm  12.2 °C 15.1 °C
Fundres Malga Stutzen (BZ) 25/07/24 05.50 9.6 °C 64 % 3.1 °C  hPa 1.4 Km/h NNW  mm  9.2 °C 11.4 °C
Fundres Punta di Dan (BZ) 25/07/24 05.50 5.9 °C 76 % 2.0 °C  hPa 12.6 Km/h WNW  mm  5.3 °C 5.9 °C
Funes (BZ) 25/07/24 05.40 12.1 °C 79 % 8.6 °C 1016.1 hPa 3.2 Km/h NNW 0.0 mm  12.0 °C 14.7 °C
Gaggiano (MI) 25/07/24 05.55 25.5 °C 64 % 18.2 °C 1010.9 hPa 6.7 Km/h ENE 0.0 mm  25.4 °C 26.9 °C
Gaiarine ARPAV (TV) 25/07/24 05.30 23.2 °C 69 % 17.2 °C  hPa  Km/h --- 0.0 mm  23.2 °C 24.9 °C
Galargues (Hérault) 25/07/24 05.31 17.7 °C 78 % 13.8 °C 1014.2 hPa 0.0 Km/h N 0.0 mm  17.1 °C 24.0 °C
Galzignano Terme ARPAV (PD) 25/07/24 05.30 21.9 °C 82 % 18.7 °C  hPa 3.6 Km/h N 0.0 mm  21.9 °C 24.4 °C
Gambellara (VI) 25/07/24 05.55 24.7 °C 65 % 17.7 °C 1012.9 hPa 8.3 Km/h N 0.0 mm  21.9 °C 25.7 °C
Garda (VR) 25/07/24 05.54 21.9 °C 77 % 17.7 °C 1012.9 hPa 2.1 Km/h NE 0.0 mm  21.8 °C 23.8 °C
Gardolo (TN) 24/07/24 15.25 32.9 °C 42 % 18.3 °C 1009.8 hPa 0.0 Km/h N 0.0 mm  19.2 °C 32.7 °C
Gargazzone (BZ) 25/07/24 05.40 17.6 °C 101 % 17.8 °C 1014.6 hPa 4.7 Km/h NW 0.0 mm  17.6 °C 20.6 °C
Genova Erzelli (GE) 25/07/24 05.58 26.1 °C 70 % 20.2 °C 1009.3 hPa 6.4 Km/h N 0.0 mm  25.3 °C 26.3 °C
Genova Oregina (GE) 25/07/24 05.58 26.9 °C 56 % 17.4 °C 1012.7 hPa 4.8 Km/h N 0.0 mm  25.3 °C 27.5 °C
Goito (MN) 25/07/24 05.53 23.1 °C 80 % 19.5 °C 1012.1 hPa 0.0 Km/h NE 0.0 mm  23.1 °C 25.1 °C
Grantorto ARPAV (PD) 25/07/24 05.30 23.7 °C 71 % 18.1 °C  hPa 7.6 Km/h NE 0.0 mm  21.6 °C 24.3 °C
Grezzana ARPAV (VR) 25/07/24 05.30 22.7 °C 64 % 15.5 °C  hPa 3.6 Km/h S 0.0 mm  22.6 °C 25.4 °C
Grigno (TN) 25/07/24 05.30 19.5 °C 99 % 19.3 °C  hPa 0.4 Km/h --- 0.0 mm  19.4 °C 20.4 °C
Guà a Ponte Guà ARPAV (VI) 25/07/24 05.30 24.8 °C  %  °C  hPa 12.6 Km/h N 0.0 mm  22.3 °C 24.8 °C
Iglesias (CI) 25/07/24 05.55 22.2 °C 84 % 19.4 °C 1013.2 hPa 1.4 Km/h W 0.0 mm  22.2 °C 24.0 °C
Illasi ARPAV (VR) 25/07/24 05.30 25.0 °C 58 % 16.2 °C  hPa 15.5 Km/h NE 0.0 mm  23.5 °C 25.4 °C
Isera loc. Reviano (TN) 25/07/24 05.59 19.0 °C 91 % 17.5 °C 1009.9 hPa 0.0 Km/h WNW 0.0 mm  18.4 °C 19.3 °C
Isola d'Elba Marina di Campo (LI) 25/07/24 05.30 26.1 °C 80 % 22.4 °C 1010.3 hPa 11.3 Km/h NNW 0.0 mm  25.9 °C 26.2 °C
Isola Vicentina ARPAV (VI) 25/07/24 05.30 22.9 °C  %  °C  hPa  Km/h --- 0.0 mm  22.7 °C 23.7 °C
Jesolo - Cortellazzo ARPAV (VE) 25/07/24 05.30 21.4 °C 79 % 17.6 °C  hPa 8.6 Km/h NNE 0.0 mm  21.4 °C 24.4 °C
La Guarda ARPAV (BL) 25/07/24 05.30 16.9 °C  %  °C  hPa  Km/h --- 0.0 mm  16.8 °C 17.2 °C
La Thuile Rifugio LoRiondet (AO) 25/07/24 05.55 13.7 °C 48 % 2.8 °C 1011.8 hPa 8.0 Km/h W 0.0 mm  11.9 °C 13.8 °C
Ladurns (BZ) 25/07/24 05.50 8.4 °C 86 % 6.2 °C  hPa 0.0 Km/h N  mm  7.8 °C 9.3 °C
Laimburg (BZ) 25/07/24 05.50 18.0 °C 100 % 18.0 °C 1016.1 hPa 0.7 Km/h WSW 0.0 mm  17.8 °C 20.1 °C
Lasa Oris (BZ) 25/07/24 05.50 13.1 °C 94 % 12.2 °C 1016.0 hPa 3.2 Km/h NW 0.0 mm  12.8 °C 18.1 °C
Lattarico (CS) 25/07/24 05.55 21.9 °C 80 % 18.3 °C 1009.7 hPa 3.2 Km/h NW 0.0 mm  21.9 °C 23.2 °C
Lavis (TN) 25/07/24 05.58 19.7 °C 88 % 17.7 °C 1014.4 hPa 1.6 Km/h NNE 0.0 mm  19.1 °C 20.0 °C
Legnago (VR) 25/07/24 05.55 23.1 °C 74 % 18.3 °C 1011.7 hPa 0.0 Km/h SE 0.0 mm  23.1 °C 25.2 °C
Legnago Aeroporto (VR) 25/07/24 05.56 22.7 °C 79 % 18.8 °C 1012.3 hPa 6.5 Km/h NE 0.0 mm  22.7 °C 24.8 °C
Legnaro ARPAV (PD) 25/07/24 05.30 23.7 °C 69 % 17.7 °C  hPa 9.0 Km/h NE 0.0 mm  23.6 °C 24.9 °C
Lesmo (MB) 25/07/24 05.25 20.6 °C 92 % 19.3 °C 1011.0 hPa 0.0 Km/h --- 6.3 mm  20.6 °C 24.5 °C
Levico Terme (TN) 25/07/24 05.30 19.2 °C 88 % 17.2 °C  hPa 0.0 Km/h --- 0.0 mm  19.2 °C 20.2 °C
Lignerolles (Allier) 25/07/24 05.58 11.6 °C 98 % 11.3 °C 1015.8 hPa 0.0 Km/h SW 0.0 mm  11.6 °C 15.3 °C
Loano (SV) 25/07/24 05.50 25.4 °C 77 % 21.1 °C 1009.3 hPa 4.8 Km/h N 0.0 mm  25.4 °C 26.6 °C
Longiarù Passo Poma (BZ) 25/07/24 05.50 8.2 °C 72 % 3.5 °C  hPa 4.7 Km/h NW  mm  8.0 °C 9.1 °C
Lonigo (VI) 25/07/24 05.59 24.0 °C 68 % 17.7 °C 1011.9 hPa 7.9 Km/h NNW 0.2 mm  23.9 °C 25.2 °C
Lonigo ARPAV (VI) 25/07/24 05.30 22.4 °C 81 % 19.0 °C  hPa 10.1 Km/h NNE 0.0 mm  22.4 °C 23.6 °C
Lugagnano (VR) 25/07/24 05.55 23.2 °C 75 % 18.5 °C 1011.0 hPa 0.0 Km/h NNW 0.0 mm  23.0 °C 27.2 °C
Lugugnana ARPAV (VE) 25/07/24 05.30 21.8 °C 82 % 18.6 °C  hPa 7.6 Km/h NNE 0.0 mm  20.9 °C 23.1 °C
Lusiana Sciessere (VI) 25/07/24 05.56 20.1 °C 68 % 14.0 °C 1012.6 hPa 1.4 Km/h E 0.0 mm  20.1 °C 21.7 °C
Malcesine (VR) 25/07/24 05.56 22.7 °C 81 % 19.4 °C 1006.6 hPa 0.0 Km/h SE 0.6 mm  20.6 °C 30.4 °C
Malcesine Loc. Pre (VR) 25/07/24 05.56 21.0 °C 91 % 19.5 °C 1013.6 hPa 0.0 Km/h SSW 17.2 mm  21.0 °C 32.0 °C
Malcesine Navene (VR) 25/07/24 05.56 21.6 °C 83 % 18.5 °C 1013.4 hPa 4.2 Km/h ESE 0.0 mm  21.2 °C 23.4 °C
Malè (TN) 25/07/24 05.30 16.7 °C 93 % 15.6 °C  hPa 3.2 Km/h SSW 0.0 mm  16.4 °C 18.3 °C
Malga Ciapela ARPAV (BL) 25/07/24 05.30 10.3 °C  %  °C  hPa  Km/h --- 0.0 mm  9.7 °C 11.1 °C
Malga Dossioli (TN) 25/07/24 05.55 12.7 °C 100 % 12.7 °C 857.7 hPa 0.4 Km/h N 0.0 mm  12.2 °C 14.1 °C
Malga Larici ARPAV (VI) 25/07/24 05.00 13.5 °C 81 % 10.3 °C  hPa 0.7 Km/h S  mm  13.5 °C 14.5 °C
Malga Losch ARPAV (BL) 25/07/24 05.00 12.2 °C 88 % 10.3 °C  hPa 0.0 Km/h WSW  mm  12.2 °C 13.3 °C
Malga Malera (VR) 25/07/24 05.56 12.5 °C  %  °C  hPa  Km/h  mm  12.0 °C 13.6 °C
Malga Nardis (TN) 25/07/24 05.54 12.3 °C 100 % 12.3 °C 1009.8 hPa 0.2 Km/h NNW 0.0 mm  12.2 °C 14.3 °C
Malnate San Salvatore (VA) 25/07/24 05.50 21.2 °C 87 % 19.0 °C 1011.3 hPa 0.0 Km/h --- 0.0 mm  20.8 °C 22.9 °C
Malo ARPAV (VI) 25/07/24 05.30 22.3 °C 74 % 17.4 °C 1013.1 hPa 11.5 Km/h SE 0.0 mm  22.3 °C 24.1 °C
Marano di Valpolicella (VR) 25/07/24 05.55 24.3 °C 54 % 14.4 °C 981.0 hPa 4.8 Km/h SE 2.0 mm  21.6 °C 25.9 °C
Marano di Valpolicella ARPAV (VR) 25/07/24 05.30 23.2 °C 61 % 15.3 °C  hPa 5.0 Km/h NE 1.0 mm  20.5 °C 23.2 °C
Marcellise (VR) 25/07/24 05.54 23.8 °C 62 % 16.1 °C 1012.5 hPa 28.4 Km/h N 0.0 mm  23.8 °C 24.8 °C
Margone (TN) 25/07/24 05.55 17.7 °C 84 % 15.0 °C 1013.4 hPa 1.5 Km/h NNW 0.0 mm  17.4 °C 19.4 °C
Marineo (PA) 25/07/24 05.58 22.8 °C 53 % 12.7 °C 1008.4 hPa 0.0 Km/h N 0.0 mm  22.7 °C 24.0 °C
Marmolada loc. Sas Del Mul (TN) 25/07/24 05.30 6.3 °C 85 % 4.0 °C  hPa 0.0 Km/h --- 0.0 mm  5.6 °C 7.1 °C
Marmolada - Punta Rocca ARPAV (BL) 25/07/24 04.30 2.0 °C  %  °C  hPa  Km/h ---  mm  2.0 °C 2.3 °C
Marostica Valle San Floriano (VI) 25/07/24 05.55 22.2 °C 71 % 16.7 °C 1012.8 hPa 0.0 Km/h NNE 0.0 mm  21.7 °C 23.7 °C
Marta (VT) 25/07/24 05.56 24.8 °C 70 % 19.0 °C 1010.9 hPa 6.5 Km/h NE 0.0 mm  23.9 °C 26.5 °C
Martignano (TN) 24/07/24 22.15 20.3 °C 82 % 17.2 °C 1011.7 hPa 0.0 Km/h ESE 2.4 mm  19.5 °C 31.1 °C
Marzana (VR) 25/07/24 05.55 22.9 °C 67 % 16.7 °C 1012.0 hPa 4.8 Km/h NNW 0.0 mm  22.9 °C 24.2 °C
Massone di Arco (TN) 25/07/24 03.05 20.3 °C 91 % 18.8 °C 1013.5 hPa 2.7 Km/h SE 0.0 mm  19.4 °C 21.2 °C
Melago Monte Pratzen (BZ) 25/07/24 05.50 7.3 °C 57 % -0.7 °C  hPa 6.5 Km/h N  mm  6.7 °C 8.0 °C
Merano (BZ) 25/07/24 05.50 16.4 °C 97 % 15.9 °C 1014.8 hPa 5.4 Km/h NW 0.0 mm  16.4 °C 19.5 °C
Merlara (PD) 25/07/24 05.50 21.7 °C 83 % 18.7 °C 1010.6 hPa 0.0 Km/h --- 0.0 mm  21.7 °C 23.4 °C
Mezzana (TN) 25/07/24 05.30 15.7 °C 89 % 13.9 °C  hPa 4.0 Km/h SW 0.0 mm  15.4 °C 17.8 °C
Mezzano (TN) 25/07/24 02.00 17.8 °C 96 % 17.2 °C  hPa 3.6 Km/h ENE 0.0 mm  17.8 °C 18.7 °C
Miglionico (MT) 25/07/24 05.55 22.8 °C 71 % 17.2 °C 1005.6 hPa 12.9 Km/h NW 0.0 mm  21.9 °C 24.9 °C
Minerbe (VR) 25/07/24 05.56 22.9 °C 78 % 18.9 °C 1012.4 hPa 14.4 Km/h NE 0.0 mm  21.7 °C 24.8 °C
Miola di Piné (TN) 25/07/24 05.56 17.3 °C 88 % 15.3 °C 1011.9 hPa 2.9 Km/h E 0.0 mm  16.9 °C 17.6 °C
Miola di Piné loc. Costalta (TN) 25/07/24 05.56 11.2 °C 92 % 9.9 °C 1016.6 hPa 5.9 Km/h S 0.0 mm  11.1 °C 12.6 °C
Mira ARPAV (VE) 25/07/24 05.30 23.4 °C 78 % 19.3 °C  hPa  Km/h --- 0.0 mm  23.4 °C 24.5 °C
Misurina ARPAV (BL) 25/07/24 04.00 10.5 °C 100 % 10.5 °C  hPa 7.2 Km/h N 0.0 mm  10.5 °C 11.1 °C
Mogliano Veneto ARPAV (TV) 25/07/24 05.30 23.0 °C 80 % 19.4 °C  hPa 4.0 Km/h NNE 0.0 mm  23.0 °C 24.7 °C
Molini ARPAV (VI) 25/07/24 05.30 16.1 °C 96 % 15.5 °C  hPa  Km/h --- 0.0 mm  16.1 °C 18.1 °C
Moneglia loc. Casale (GE) 25/07/24 05.55 22.2 °C 88 % 20.1 °C 1010.5 hPa 0.0 Km/h ENE 0.0 mm  22.1 °C 23.2 °C
Moneglia loc. La Secca (GE) 25/07/24 05.55 26.3 °C 66 % 19.4 °C 1009.5 hPa 0.0 Km/h NNE 0.0 mm  24.9 °C 26.3 °C
Mongrando San Michele (BI) 23/07/24 23.10 21.7 °C 22 % -0.9 °C 1014.7 hPa 0.0 Km/h --- 0.0 mm  19.3 °C 30.0 °C
Monguelfo (BZ) 25/07/24 05.40 9.2 °C 100 % 9.2 °C 1018.6 hPa 2.5 Km/h SSE 0.0 mm  8.8 °C 11.4 °C
Montagna in Valtellina (SO) 25/07/24 05.58 19.4 °C 81 % 16.1 °C 1012.5 hPa 0.0 Km/h NNE 0.0 mm  19.4 °C 23.4 °C
Monte Baldo Nord ARPAV (VR) 25/07/24 05.00 13.5 °C 82 % 10.5 °C 1012.8 hPa 12.6 Km/h SSW  mm  12.8 °C 14.2 °C
Monte Bondone loc. Viote (TN) 25/07/24 05.30 12.6 °C 100 % 12.6 °C  hPa 2.9 Km/h NNW 0.2 mm  12.1 °C 14.1 °C
Monte Cesen ARPAV (TV) 25/07/24 05.00 13.1 °C 78 % 9.3 °C  hPa 24.8 Km/h E  mm  13.1 °C 14.5 °C
Monte Cherz ARPAV (BL) 25/07/24 05.00 10.0 °C 66 % 3.9 °C  hPa 5.4 Km/h NW  mm  10.0 °C 10.9 °C
Monte Grande ARPAV (PD) 25/07/24 05.00 21.0 °C  %  °C  hPa  Km/h ---  mm  21.0 °C 22.9 °C
Monte Lisser ARPAV (VI) 25/07/24 05.00 14.5 °C 85 % 12.0 °C 1013.5 hPa 1.8 Km/h SW  mm  14.5 °C 15.8 °C
Monte Maria (BZ) 25/07/24 05.50 13.2 °C 61 % 5.8 °C 1015.3 hPa  Km/h --- 0.0 mm  13.0 °C 15.4 °C
Monte Piana ARPAV (BL) 25/07/24 02.30 9.3 °C 82 % 6.4 °C  hPa 6.8 Km/h N  mm  9.3 °C 9.3 °C
Monte Rufeno (VT) 21/07/24 19.35 27.1 °C 48 % 15.1 °C 1007.8 hPa 0.0 Km/h W 0.0 mm  21.5 °C 32.0 °C
Monte Scabro di Plan (BZ) 25/07/24 05.50 5.5 °C 59 % -1.9 °C  hPa 10.4 Km/h SSW  mm  3.4 °C 5.5 °C
Monte Summano ARPAV (VI) 25/07/24 05.30 21.1 °C 65 % 14.3 °C  hPa  Km/h --- 0.0 mm  21.1 °C 22.4 °C
Monte Tomba ARPAV (VR) 25/07/24 05.00 14.1 °C 78 % 10.3 °C  hPa 9.4 Km/h NNE  mm  13.9 °C 14.7 °C
Montebelluna Loc. Contea ARPAV (TV) 25/07/24 05.30 23.2 °C  %  °C  hPa  Km/h --- 0.0 mm  22.9 °C 24.7 °C
Montecchio Maggiore Sant'Urbano (VI) 25/07/24 05.44 21.3 °C 77 % 17.1 °C 1011.6 hPa 18.9 Km/h NE 0.0 mm  21.2 °C 25.8 °C
Montecchio Precalcino ARPAV (VI) 25/07/24 05.30 19.6 °C 99 % 19.4 °C  hPa 7.6 Km/h N 14.8 mm  19.6 °C 23.9 °C
Montegalda ARPAV (VI) 25/07/24 05.30 22.5 °C 83 % 19.5 °C  hPa 4.0 Km/h NNW 0.0 mm  22.5 °C 24.1 °C
Monti Alti di Ornella ARPAV (BL) 25/07/24 05.00 9.2 °C 65 % 3.0 °C  hPa 0.4 Km/h WNW  mm  9.2 °C 9.9 °C
Montorio (VR) 25/07/24 05.54 26.0 °C 61 % 17.9 °C 1013.6 hPa 10.2 Km/h ENE 0.5 mm  22.8 °C 27.3 °C
Montorso Vicentino (VI) 25/07/24 05.58 21.4 °C 73 % 16.4 °C 1011.9 hPa 0.0 Km/h NE 0.0 mm  21.4 °C 23.6 °C
Morbegno (SO) 25/07/24 05.59 19.7 °C 78 % 15.7 °C 1043.9 hPa 0.0 Km/h NE 0.0 mm  19.7 °C 23.8 °C
Musigliano (PI) 20/07/24 06.58 24.9 °C 91 % 23.3 °C 1010.5 hPa 0.0 Km/h S 0.0 mm  24.8 °C 26.2 °C
Naturno (BZ) 25/07/24 05.50 14.2 °C 97 % 13.7 °C 1016.9 hPa 6.5 Km/h WNW 0.0 mm  13.7 °C 18.3 °C
Nervesa Della Battaglia ARPAV (TV) 25/07/24 05.30 22.9 °C  %  °C  hPa  Km/h --- 0.0 mm  22.9 °C 24.2 °C
Nichelino (TO) 25/07/24 05.35 24.2 °C 79 % 20.3 °C 1013.3 hPa 4.8 Km/h NNW 0.0 mm  24.1 °C 27.6 °C
Nova Levante (BZ) 25/07/24 05.40 13.6 °C 91 % 12.2 °C 1016.3 hPa  Km/h --- 0.0 mm  13.1 °C 15.3 °C
Nova Ponente (BZ) 25/07/24 05.40 12.9 °C 71 % 7.8 °C 1014.4 hPa 7.9 Km/h NNW 0.0 mm  12.5 °C 14.5 °C
Nova Ponente Obereggen (BZ) 25/07/24 05.50 10.0 °C 91 % 8.6 °C  hPa 0.7 Km/h E  mm  9.9 °C 11.0 °C
Noventa di Piave - Grassaga ARPAV (VE) 25/07/24 05.30 21.5 °C 86 % 19.1 °C  hPa 7.2 Km/h NE 0.0 mm  21.5 °C 24.3 °C
Novezzina (VR) 25/07/24 05.50 15.1 °C 88 % 12.8 °C 1019.4 hPa 8.0 Km/h N 6.4 mm  14.2 °C 15.8 °C
Oppeano2 (VR) 25/07/24 05.55 24.7 °C 64 % 17.5 °C 1012.8 hPa 0.3 Km/h NNE 0.0 mm  23.3 °C 25.8 °C
Ora (BZ) 25/07/24 05.50 19.3 °C 100 % 19.3 °C 1014.2 hPa  Km/h --- 0.0 mm  18.8 °C 20.8 °C
Oristano (OR) 25/07/24 05.59 22.5 °C 88 % 20.4 °C 1010.7 hPa 1.9 Km/h SE 0.0 mm  22.4 °C 24.0 °C
Orosei (NU) 25/07/24 05.58 24.7 °C 61 % 16.6 °C 1009.5 hPa 0.0 Km/h W 0.0 mm  24.7 °C 27.1 °C
Ortonovo (SP) 25/07/24 05.56 24.3 °C 71 % 18.7 °C 1028.5 hPa 7.0 Km/h ENE 0.0 mm  24.0 °C 24.7 °C
Ospedaletto Euganeo ARPAV (PD) 25/07/24 05.30 22.4 °C 89 % 20.5 °C  hPa 2.2 Km/h W 0.0 mm  22.4 °C 24.6 °C
Ovaro loc. Liariis (UD) 25/07/24 03.30 16.9 °C 87 % 14.8 °C 1013.9 hPa 0.0 Km/h N 0.0 mm  16.9 °C 17.4 °C
Pace del Mela (ME) 24/07/24 23.45 24.8 °C 85 % 22.1 °C 1010.7 hPa 0.5 Km/h NW 0.0 mm  22.3 °C 30.6 °C
Padergnone (TN) 25/07/24 05.55 20.8 °C 87 % 18.5 °C 1012.0 hPa 1.3 Km/h ESE 0.0 mm  20.3 °C 21.2 °C
Padola (BL) 25/07/24 05.40 12.3 °C 0 % 0.0 °C 0.0 hPa 0.0 Km/h - 0.0 mm  11.4 °C 14.1 °C
Paganella loc. Malga Terlago (TN) 24/07/24 23.15 10.7 °C 97 % 10.2 °C  hPa  Km/h --- 35.0 mm  7.5 °C 17.9 °C
Palù di Zevio (VR) 25/07/24 05.55 23.1 °C 76 % 18.6 °C 1012.8 hPa 9.4 Km/h E 0.0 mm  20.0 °C 24.3 °C
Parella (TO) 25/07/24 05.54 23.1 °C 80 % 19.5 °C 1011.8 hPa 0.0 Km/h NNW 0.0 mm  23.0 °C 25.2 °C
Passo Brocon (TN) 24/07/24 18.15 14.8 °C 89 % 13.0 °C  hPa  Km/h --- 0.4 mm  12.1 °C 18.2 °C
Passo Campogrosso ARPAV (VI) 25/07/24 05.00 14.8 °C 78 % 11.0 °C  hPa 14.8 Km/h SE  mm  14.8 °C 15.4 °C
Passo di Costalunga (BZ) 25/07/24 05.40 11.2 °C 83 % 8.4 °C 1015.3 hPa 4.7 Km/h NNE 0.0 mm  10.6 °C 12.1 °C
Passo Falzarego ARPAV (BL) 25/07/24 05.00 9.1 °C 82 % 6.2 °C 1014.0 hPa 3.2 Km/h NW 0.0 mm  9.0 °C 9.1 °C
Passo Monte Croce Comelico ARPAV (BL) 25/07/24 05.30 9.4 °C 97 % 8.9 °C  hPa 6.1 Km/h WNW 0.0 mm  9.4 °C 11.3 °C
Passo Pian Delle Fugazze (TN) 25/07/24 05.30 13.4 °C 91 % 12.0 °C  hPa 2.9 Km/h SW 0.0 mm  13.2 °C 16.7 °C
Passo Rolle (TN) 25/07/24 05.30 10.2 °C 100 % 10.2 °C  hPa 11.2 Km/h SSE 0.0 mm  10.0 °C 11.4 °C
Passo Santa Caterina ARPAV (VI) 25/07/24 05.30 18.5 °C 74 % 13.8 °C  hPa 4.7 Km/h ENE 0.2 mm  18.5 °C 19.5 °C
Passo Sommo (TN) 25/07/24 05.30 14.5 °C 85 % 12.0 °C  hPa 2.2 Km/h ENE 0.0 mm  13.9 °C 15.4 °C
Passo Tonale (TN) 25/07/24 05.30 10.1 °C 87 % 8.0 °C  hPa 1.4 Km/h NNE 0.0 mm  9.8 °C 11.7 °C
Passo Valles (TN) 25/07/24 05.30 10.0 °C 50 % 0.1 °C  hPa 3.6 Km/h WNW 0.0 mm  9.3 °C 10.7 °C
Passo Xomo ARPAV (VI) 25/07/24 05.30 16.0 °C 77 % 12.0 °C  hPa 5.8 Km/h WSW 0.0 mm  16.0 °C 16.9 °C
Pecetto Torinese (TO) 25/07/24 05.55 22.6 °C 79 % 18.7 °C 1010.4 hPa 0.0 Km/h NNW 0.0 mm  22.6 °C 25.6 °C
Pedara (CT) 25/07/24 05.55 19.1 °C 67 % 12.8 °C 1005.1 hPa 0.0 Km/h --- 0.0 mm  18.9 °C 21.7 °C
Pedemonte (VR) 25/07/24 05.55 21.4 °C 83 % 18.4 °C 1010.9 hPa 0.0 Km/h N 1.0 mm  21.4 °C 26.1 °C
Peio (TN) 25/07/24 05.30 13.2 °C 90 % 11.6 °C  hPa 1.1 Km/h NNW 0.0 mm  13.0 °C 14.6 °C
Pennes (BZ) 25/07/24 05.50 9.7 °C 94 % 8.8 °C 1017.6 hPa  Km/h --- 0.0 mm  9.1 °C 14.1 °C
Pennes Val Tramin (BZ) 25/07/24 05.50 7.6 °C 88 % 5.7 °C  hPa 0.0 Km/h E  mm  7.1 °C 9.6 °C
Perarolo ARPAV (BL) 25/07/24 05.30 16.1 °C 100 % 16.1 °C  hPa 2.9 Km/h N 0.0 mm  16.1 °C 16.8 °C
Pergine Valsugana (TN) 19/07/24 16.00 27.9 °C 63 % 20.2 °C  hPa 2.9 Km/h NE 0.0 mm  19.1 °C 32.0 °C
Perugia San Mariano (PG) 25/07/24 05.55 21.3 °C 66 % 14.7 °C 1011.0 hPa 0.0 Km/h --- 0.0 mm  21.3 °C 26.6 °C
Pescantina (VR) 25/07/24 05.55 22.1 °C 75 % 17.5 °C 1013.4 hPa 0.5 Km/h W 0.0 mm  22.1 °C 26.3 °C
Peschiera del Garda (VR) 25/07/24 05.55 22.3 °C 79 % 18.3 °C 1011.5 hPa 3.1 Km/h NNE 0.0 mm  22.3 °C 24.3 °C
Peschiera del Garda ARPAV (VR) 24/07/24 09.00 26.7 °C 64 % 19.3 °C  hPa 2.2 Km/h NNW 0.0 mm  22.5 °C 26.7 °C
Pian Cansiglio Agriturismo Le Code (BL) 25/07/24 05.43 13.4 °C 98 % 13.1 °C 0.0 hPa 0.0 Km/h - 0.0 mm  12.9 °C 15.0 °C
Pian Cansiglio Loc. Casera Le Rotte (TV) 25/07/24 05.55 14.7 °C 97 % 14.2 °C 1013.0 hPa 4.7 Km/h SW 0.0 mm  14.3 °C 16.1 °C
Pian Cansiglio Loc. I Bech - Le Code (BL) 25/07/24 05.54 13.6 °C 100 % 13.6 °C 0.0 hPa 0.0 Km/h - 0.0 mm  12.7 °C 14.9 °C
Pian Cansiglio Loc. Valmenera (BL) 25/07/24 05.53 13.2 °C 99 % 13.0 °C 0.0 hPa 0.0 Km/h - 0.0 mm  13.2 °C 14.9 °C
Pian Cansiglio loc. Veneto Agricoltura (BL) 25/07/24 05.30 13.4 °C 0 % 0.0 °C 0.0 hPa 0.0 Km/h - 0.0 mm  13.4 °C 15.3 °C
Pian Cansiglio Malga Col dei S'cios (PN) 25/07/24 05.46 14.5 °C 89 % 12.3 °C 0.0 hPa 0.0 Km/h - 0.0 mm  14.5 °C 16.6 °C
Pian Cansiglio Malga Filippon (BL) 25/07/24 05.49 13.2 °C 100 % 13.2 °C 0.0 hPa 0.0 Km/h - 0.0 mm  12.9 °C 14.8 °C
Pian Cansiglio Rifugio Carlo e Massimo Semenza - CAI (BL) 25/07/24 05.46 10.1 °C 91 % 8.8 °C 0.0 hPa 0.0 Km/h - 0.0 mm  10.1 °C 11.1 °C
Piana di Marcesina - Rendole ARPAV (VI) 25/07/24 05.30 12.4 °C 98 % 12.1 °C  hPa 3.2 Km/h NW 0.0 mm  12.4 °C 14.4 °C
Pila Valsesia (VC) 25/07/24 05.50 17.7 °C 89 % 15.9 °C 1010.0 hPa 0.0 Km/h --- 0.0 mm  17.4 °C 19.8 °C
Pinzolo (TN) 25/07/24 05.30 16.3 °C 100 % 16.3 °C  hPa 0.7 Km/h SSE 0.0 mm  16.1 °C 19.3 °C
Piovà Massaia (AT) 25/07/24 05.58 22.2 °C 85 % 19.6 °C 1012.1 hPa 0.0 Km/h ENE 0.0 mm  22.2 °C 25.5 °C
Piraino contr. Fiumara (ME) 25/07/24 05.50 21.1 °C 80 % 17.5 °C 1010.5 hPa 0.0 Km/h SE 0.0 mm  20.9 °C 22.9 °C
Plan (BZ) 25/07/24 05.50 7.9 °C 97 % 7.5 °C 1018.1 hPa 7.2 Km/h WSW 0.0 mm  7.4 °C 9.3 °C
Plata in Passiria (BZ) 25/07/24 05.40 12.9 °C 78 % 9.2 °C 1016.1 hPa 1.4 Km/h SSW 0.0 mm  12.9 °C 16.6 °C
Plose (BZ) 25/07/24 05.50 6.7 °C 83 % 4.0 °C  hPa 8.3 Km/h WSW  mm  6.7 °C 7.7 °C
Pocenia (UD) 25/07/24 05.55 20.7 °C 85 % 18.1 °C 1011.6 hPa 0.0 Km/h N 0.0 mm  20.5 °C 22.8 °C
Pojana Maggiore Cagnano (VI) 25/07/24 05.56 23.7 °C 73 % 18.6 °C 1011.0 hPa 4.7 Km/h E 0.0 mm  22.7 °C 25.4 °C
Pomezia (RM) 25/07/24 05.58 23.8 °C 86 % 21.3 °C 1007.8 hPa 0.0 Km/h SE 0.0 mm  23.7 °C 25.5 °C
Ponte di Piave ARPAV (TV) 25/07/24 05.00 20.4 °C 87 % 18.2 °C  hPa 4.7 Km/h NE 0.0 mm  20.4 °C 23.4 °C
Ponte San Nicolò (PD) 25/07/24 05.58 23.7 °C 67 % 17.2 °C 1012.6 hPa 1.4 Km/h ESE 0.0 mm  23.6 °C 26.0 °C
Ponte San Pellegrino (MO) 25/07/24 05.58 22.2 °C 87 % 19.9 °C 1012.8 hPa 3.0 Km/h SW 0.0 mm  22.2 °C 24.9 °C
Pordenone (PN) 25/07/24 05.50 24.3 °C 62 % 16.6 °C 1011.5 hPa 1.6 Km/h NE 0.0 mm  23.8 °C 25.1 °C
Porto Tolle - Pradon ARPAV (RO) 25/07/24 05.30 23.9 °C 72 % 18.5 °C 1011.2 hPa 5.8 Km/h ESE 0.0 mm  21.8 °C 24.7 °C
Portogruaro - Lison ARPAV (VE) 25/07/24 05.30 21.5 °C 84 % 18.7 °C  hPa 9.7 Km/h NNE 0.0 mm  21.0 °C 23.8 °C
Posina loc. Contrà Boni (VI) 25/07/24 05.55 17.2 °C 91 % 15.7 °C 1016.4 hPa 0.0 Km/h WNW 0.0 mm  16.6 °C 17.7 °C
Pozzolo Formigaro (AL) 25/07/24 05.58 21.3 °C 91 % 19.8 °C 1012.9 hPa 0.0 Km/h E 0.0 mm  21.2 °C 24.4 °C
Pozzonovo (PD) 25/07/24 05.56 22.4 °C 65 % 15.5 °C 1011.5 hPa 1.6 Km/h N 0.0 mm  22.4 °C 24.6 °C
Prati di Plan (BZ) 25/07/24 05.50 8.5 °C 78 % 4.9 °C  hPa 1.8 Km/h ESE  mm  8.4 °C 10.1 °C
Predoi (BZ) 25/07/24 05.50 7.8 °C 100 % 7.8 °C 1018.5 hPa 1.1 Km/h E 0.0 mm  7.8 °C 11.0 °C
Predoi Malga Merbe (BZ) 25/07/24 05.50 6.2 °C 80 % 3.0 °C  hPa 3.6 Km/h SW  mm  6.2 °C 9.9 °C
Predoi Pizzo Lungo (BZ) 25/07/24 05.50 1.7 °C 82 % -1.0 °C  hPa 9.7 Km/h E  mm  0.8 °C 1.9 °C
Proves Alpe di Brez (BZ) 25/07/24 05.50 9.3 °C 97 % 8.8 °C  hPa 0.7 Km/h WNW  mm  9.0 °C 10.5 °C
Ra Valles ARPAV (BL) 25/07/24 05.00 6.1 °C 95 % 5.4 °C  hPa 5.0 Km/h SSE  mm  6.1 °C 6.9 °C
Rabbi loc. San Bernardo (TN) 25/07/24 05.30 14.8 °C 87 % 12.7 °C  hPa 0.4 Km/h E 0.0 mm  14.7 °C 16.9 °C
Racines Malga Wasserfaller (BZ) 25/07/24 05.50 8.9 °C 91 % 7.5 °C  hPa 0.0 Km/h W  mm  8.6 °C 9.6 °C
Recoaro Mille ARPAV (VI) 25/07/24 05.30 17.9 °C 70 % 12.3 °C  hPa 2.2 Km/h E 0.0 mm  17.5 °C 18.9 °C
Redagno (BZ) 25/07/24 05.40 13.2 °C 67 % 7.2 °C 1015.5 hPa 5.4 Km/h NE 0.0 mm  13.2 °C 15.2 °C
Reggello (FI) 25/07/24 05.55 20.1 °C 76 % 15.7 °C 1012.9 hPa 11.0 Km/h SW 0.0 mm  20.0 °C 24.3 °C
Renon Siffian (BZ) 25/07/24 05.40 15.8 °C 71 % 10.5 °C 1014.9 hPa 2.5 Km/h ENE 0.0 mm  15.1 °C 19.0 °C
Riccione (RN) 25/07/24 05.53 22.1 °C 83 % 19.1 °C 1008.8 hPa 0.0 Km/h S 0.0 mm  22.1 °C 25.8 °C
Ridanna (BZ) 25/07/24 05.50 10.9 °C 86 % 8.6 °C 1020.0 hPa  Km/h --- 0.0 mm  10.8 °C 12.2 °C
Rifugio Altissimo Damiano Chiesa (TN) 25/07/24 05.56 10.3 °C 94 % 9.4 °C 797.2 hPa 0.0 Km/h E 0.0 mm  10.1 °C 12.3 °C
Rifugio Castelberto (VR) 25/07/24 06.00 12.8 °C 78 % 9.1 °C 1013.1 hPa 0.0 Km/h E 0.0 mm  12.7 °C 15.0 °C
Rifugio Citta di Fiume (BL) 25/07/24 05.58 11.4 °C 82 % 8.4 °C 1011.5 hPa 0.0 Km/h W 0.0 mm  10.4 °C 12.3 °C
Rifugio Città di Vittorio Veneto (TV) 25/07/24 05.44 13.1 °C 92 % 11.8 °C 0.0 hPa 0.0 Km/h - 0.0 mm  12.9 °C 15.1 °C
Rifugio Dolomieu al Dolada (BL) 25/07/24 05.47 12.6 °C 94 % 11.4 °C 0.0 hPa 0.0 Km/h - 0.0 mm  12.4 °C 14.1 °C
Rifugio la Guardia ARPAV (VI) 25/07/24 05.30 15.4 °C 83 % 12.5 °C  hPa 5.0 Km/h NNW 0.0 mm  15.4 °C 16.9 °C
Rifugio Marchetti (TN) 25/07/24 05.55 10.9 °C 97 % 10.5 °C 1026.7 hPa 1.3 Km/h ESE 0.0 mm  10.0 °C 12.8 °C
Rifugio Telegrafo (VR) 25/07/24 05.56 9.7 °C 94 % 8.7 °C 786.5 hPa 4.8 Km/h SE 0.0 mm  9.4 °C 11.6 °C
Rimini (RN) 25/07/24 05.50 23.5 °C 75 % 18.8 °C 1011.5 hPa 3.2 Km/h SSW 0.0 mm  23.4 °C 27.8 °C
Rio Bianco Malga Fadner (BZ) 25/07/24 05.40 8.8 °C 70 % 3.6 °C  hPa 4.3 Km/h SE  mm  8.7 °C 9.7 °C
Riva di Tures (BZ) 25/07/24 05.50 6.9 °C 100 % 6.9 °C 1018.8 hPa 1.8 Km/h SE 0.0 mm  6.9 °C 10.1 °C
Rivalta sul Mincio (MN) 25/07/24 05.55 22.9 °C 83 % 19.8 °C 1010.8 hPa 4.1 Km/h NNE 0.0 mm  22.9 °C 25.3 °C
Rocca Priora (RM) 25/07/24 05.45 21.4 °C 81 % 18.0 °C 1009.9 hPa 4.8 Km/h ESE 0.0 mm  20.5 °C 21.8 °C
Ronciglione Centro (VT) 25/07/24 05.59 21.9 °C 85 % 19.3 °C 1009.7 hPa 0.2 Km/h NE 0.0 mm  21.8 °C 25.3 °C
Ronciglione Poggio Cavaliere (VT) 25/07/24 05.55 20.7 °C 88 % 18.6 °C 1013.3 hPa 0.0 Km/h N/A 0.0 mm  20.7 °C 24.2 °C
Rosà ARPAV (VI) 25/07/24 05.30 24.3 °C 62 % 16.5 °C  hPa 2.9 Km/h ENE 0.0 mm  24.2 °C 25.1 °C
Rosolina - Po di Tramontana ARPAV (RO) 25/07/24 05.30 26.3 °C 65 % 19.2 °C  hPa 5.0 Km/h ENE 0.0 mm  22.9 °C 27.0 °C
Rossano Veneto (VI) 25/07/24 05.55 24.0 °C 69 % 17.8 °C 1012.6 hPa 0.0 Km/h N 0.0 mm  24.0 °C 25.2 °C
Roverchiara ARPAV (VR) 25/07/24 05.30 22.6 °C 78 % 18.6 °C  hPa 9.0 Km/h NE 0.0 mm  21.3 °C 23.1 °C
Rovereto (TN) 25/07/24 05.30 19.1 °C 93 % 17.9 °C  hPa 1.8 Km/h NE 0.0 mm  18.9 °C 19.8 °C
Rovereto loc. Malga Zugna (TN) 25/07/24 05.30 13.0 °C 80 % 9.6 °C  hPa 8.6 Km/h SE 0.0 mm  12.8 °C 14.4 °C
Rovina di Cancia ARPAV (BL) 25/07/24 05.00 13.8 °C  %  °C  hPa  Km/h --- 0.0 mm  13.8 °C 15.0 °C
S. Giovanni Ilarione (VR) 25/07/24 05.54 23.0 °C 68 % 16.9 °C 1016.1 hPa 6.1 Km/h NW 0.0 mm  22.7 °C 24.4 °C
S. Giovanni Ilarione2 (VR) 25/07/24 05.56 22.2 °C 73 % 17.1 °C 1011.6 hPa 1.6 Km/h WSW 0.0 mm  21.4 °C 23.4 °C
S. Giovanni Lupatoto (VR) 25/07/24 05.56 25.4 °C 59 % 16.8 °C 1013.0 hPa 0.0 Km/h E 0.0 mm  25.0 °C 26.9 °C
S. Lorenzo di Vittorio Veneto (TV) 25/07/24 05.54 22.2 °C 71 % 16.7 °C 1010.8 hPa 0.0 Km/h W 0.0 mm  22.2 °C 24.7 °C
S. Lorenzo Nuovo (VT) 25/07/24 05.56 21.0 °C 71 % 15.5 °C 1010.6 hPa 7.9 Km/h NNE 0.0 mm  20.9 °C 24.6 °C
S. Maddalena in Casies (BZ) 25/07/24 05.40 8.8 °C 98 % 8.5 °C 1022.1 hPa 11.9 Km/h NNE 0.0 mm  8.5 °C 10.6 °C
S. Maria di Zevio Loc. 3 Ponti (VR) 25/07/24 05.56 24.4 °C 66 % 17.6 °C 1013.2 hPa 4.8 Km/h E 0.0 mm  23.3 °C 26.1 °C
S. Maria Maddalena (RO) 25/07/24 05.56 22.6 °C 80 % 18.9 °C 1010.4 hPa 1.1 Km/h NNE 0.0 mm  22.6 °C 25.9 °C
S. Martino in Badia (BZ) 25/07/24 05.50 9.4 °C 99 % 9.3 °C 1020.6 hPa 2.2 Km/h SE 0.0 mm  9.3 °C 12.1 °C
S. Martino in Passiria (BZ) 25/07/24 05.40 14.2 °C 92 % 12.9 °C 1016.4 hPa 2.2 Km/h N 0.0 mm  14.2 °C 21.3 °C
S. Martino Lupari (PD) 25/07/24 05.45 24.6 °C 73 % 19.4 °C 1013.0 hPa 0.0 Km/h --- 0.0 mm  24.6 °C 25.6 °C
S. Mauro di Saline (VR) 25/07/24 05.54 21.8 °C 68 % 15.6 °C 1013.4 hPa 9.0 Km/h ENE 0.0 mm  21.2 °C 23.1 °C
S. Rocco di Villabalzana (VI) 25/07/24 05.58 22.3 °C 77 % 18.2 °C 1011.5 hPa 1.7 Km/h NW 0.0 mm  22.3 °C 23.8 °C
S. Valburga (BZ) 25/07/24 05.50 14.3 °C 86 % 12.0 °C 1015.5 hPa 6.8 Km/h WSW 0.0 mm  14.3 °C 15.9 °C
S. Valentino alla Muta (BZ) 25/07/24 05.50 11.6 °C 100 % 11.6 °C 1015.8 hPa 26.3 Km/h NNE 0.0 mm  10.9 °C 13.8 °C
S. Zeno di Mont. Prada (VR) 25/07/24 05.50 15.6 °C 94 % 14.6 °C 1014.6 hPa 0.0 Km/h ENE 0.3 mm  15.5 °C 18.1 °C
S. Zeno di Mont. 2 (VR) 25/07/24 05.45 22.5 °C 66 % 15.8 °C 1010.8 hPa 4.6 Km/h E 0.0 mm  20.6 °C 23.3 °C
Sacile (PN) 25/07/24 05.49 23.2 °C 71 % 17.6 °C 1013.1 hPa 4.8 Km/h NNE 0.0 mm  22.9 °C 25.6 °C
Sacile2 (PN) 25/07/24 05.55 23.3 °C 69 % 17.3 °C 1013.2 hPa 1.0 Km/h NE 0.0 mm  22.8 °C 24.8 °C
Salcedo (VI) 25/07/24 05.56 22.5 °C 68 % 16.3 °C 1012.0 hPa 0.0 Km/h SW 0.0 mm  22.5 °C 25.3 °C
Salorno (BZ) 25/07/24 05.50 20.9 °C 99 % 20.7 °C 1014.8 hPa 15.1 Km/h E 0.0 mm  18.5 °C 20.9 °C
San Benedetto del Tronto (AP) 25/07/24 05.55 26.6 °C 66 % 19.7 °C 1011.0 hPa 0.0 Km/h WSW 0.0 mm  26.6 °C 27.9 °C
San Bortolo ARPAV (VR) 25/07/24 05.30 18.7 °C  %  °C  hPa 7.6 Km/h E 0.0 mm  18.7 °C 19.7 °C
San Genesio (BZ) 25/07/24 05.40 15.4 °C 94 % 14.4 °C 1015.1 hPa 1.4 Km/h NW 0.0 mm  14.9 °C 17.1 °C
San Giacomo di Veglia (TV) 25/07/24 05.45 21.3 °C 81 % 17.4 °C 0.0 hPa 0.0 Km/h - 0.0 mm  21.2 °C 24.1 °C
San Giovanni la Punta Trappeto (CT) 24/07/24 21.30 27.7 °C 67 % 21.0 °C 1010.3 hPa 1.6 Km/h NNE 0.0 mm  23.6 °C 35.6 °C
San Lorenzo In Banale loc. Pergoletti (TN) 25/07/24 05.30 17.8 °C 85 % 15.2 °C  hPa 1.8 Km/h NNE 0.0 mm  17.1 °C 19.3 °C
San Martino di Castrozza (TN) 25/07/24 05.30 13.6 °C 99 % 13.4 °C  hPa 2.9 Km/h W 0.0 mm  12.8 °C 14.3 °C
San Pietro di Rosà (VI) 25/07/24 05.56 0.0 °C 0 % 0.0 °C 1016.6 hPa 0.0 Km/h [wind 0.0 mm  24.1 °C 25.2 °C
San Pietro in Cariano (VR) 25/07/24 05.54 22.2 °C 75 % 17.6 °C 1010.8 hPa 2.7 Km/h NNE 0.0 mm  22.1 °C 25.4 °C
San Pietro in Cariano ARPAV (VR) 25/07/24 05.30 21.2 °C 79 % 17.4 °C  hPa  Km/h --- 0.0 mm  21.2 °C 24.3 °C
San Vito di Braies (BZ) 25/07/24 05.40 8.9 °C 100 % 8.9 °C 1020.0 hPa  Km/h --- 0.0 mm  8.4 °C 10.6 °C
San Vito di Negrar (VR) 25/07/24 05.55 20.7 °C 86 % 18.2 °C 1012.5 hPa 0.0 Km/h E 1.4 mm  20.6 °C 27.1 °C
San Zeno di Mont. Loc. Castello (VR) 25/07/24 05.55 19.9 °C 72 % 15.0 °C 1010.0 hPa 0.0 Km/h W 0.8 mm  19.1 °C 22.1 °C
Sant'Apollinare ARPAV (RO) 25/07/24 05.30 21.9 °C 100 % 21.9 °C  hPa 4.0 Km/h NE 0.0 mm  21.8 °C 23.3 °C
Santa Maria di Negrar (VR) 25/07/24 05.54 20.8 °C 83 % 17.8 °C 1012.9 hPa 1.6 Km/h NE 1.3 mm  20.8 °C 27.3 °C
Santarcangelo di Romagna (RN) 23/07/24 22.16 26.9 °C 62 % 19.0 °C 1007.9 hPa 1.3 Km/h NW 0.0 mm  21.8 °C 32.3 °C
Santo Stefano di Cadore ARPAV (BL) 25/07/24 05.30 13.5 °C 100 % 13.5 °C  hPa 1.4 Km/h E 0.0 mm  13.5 °C 14.2 °C
Sappada ARPAV (BL) 25/07/24 03.30 11.7 °C 91 % 10.3 °C  hPa 2.5 Km/h WSW 0.0 mm  11.7 °C 12.0 °C
Sarcedo (VI) 25/07/24 05.55 23.8 °C 67 % 17.3 °C 1010.1 hPa 1.1 Km/h ESE 0.0 mm  23.6 °C 25.3 °C
Sarentino (BZ) 25/07/24 05.50 15.1 °C 66 % 8.8 °C 1015.5 hPa 5.4 Km/h NNW 0.0 mm  15.0 °C 17.4 °C
Schifflange (LUX) 25/07/24 05.44 12.1 °C 94 % 11.1 °C 1003.1 hPa 0.0 Km/h NW 0.0 mm  12.0 °C 16.2 °C
Schio (VI) 25/07/24 04.45 22.1 °C 79 % 18.3 °C 1013.1 hPa 4.8 Km/h W 0.0 mm  22.1 °C 22.9 °C
Selva dei Molini (BZ) 25/07/24 05.40 10.3 °C 95 % 9.5 °C 1018.3 hPa  Km/h --- 0.0 mm  10.3 °C 15.1 °C
Selva di V. Gardena (BZ) 25/07/24 05.50 10.0 °C 82 % 7.1 °C 1016.9 hPa  Km/h --- 0.0 mm  9.9 °C 11.8 °C
Senales Finale (BZ) 25/07/24 05.50 9.6 °C 96 % 9.0 °C  hPa  Km/h ---  mm  9.6 °C 11.1 °C
Senales Teufelsegg (BZ) 25/07/24 05.50 3.0 °C 55 % -5.2 °C  hPa  Km/h ---  mm  2.3 °C 4.7 °C
Senales Vernago (BZ) 25/07/24 05.40 10.2 °C 96 % 9.6 °C 1017.5 hPa  Km/h --- 0.0 mm  10.0 °C 12.2 °C
Seremange Erzange (Moselle) 25/07/24 05.59 12.7 °C 90 % 11.1 °C 1017.7 hPa 0.0 Km/h W 0.0 mm  13.1 °C 16.3 °C
Sesto (BZ) 25/07/24 05.40 9.6 °C 100 % 9.6 °C 1015.9 hPa 2.5 Km/h SE 0.0 mm  8.9 °C 11.7 °C
Sesto Prati di Croda Rossa (BZ) 25/07/24 05.50 9.9 °C 84 % 7.3 °C  hPa 1.8 Km/h S  mm  9.2 °C 11.3 °C
Silandro (BZ) 25/07/24 05.50 13.5 °C 86 % 11.2 °C 1016.6 hPa 1.8 Km/h NW 0.1 mm  13.1 °C 16.0 °C
Sinnai (CA) 25/07/24 05.56 22.4 °C 82 % 19.2 °C 1010.1 hPa 6.4 Km/h N 0.0 mm  22.4 °C 23.2 °C
Soave Borgo Bassano (VR) 25/07/24 05.59 25.4 °C 60 % 17.1 °C 1011.6 hPa 9.7 Km/h NE 0.0 mm  25.4 °C 27.6 °C
Solda (BZ) 25/07/24 05.40 8.6 °C 87 % 6.6 °C 1016.1 hPa  Km/h --- 0.0 mm  7.9 °C 9.7 °C
Solda Madriccio (BZ) 25/07/24 05.50 6.8 °C 58 % -0.9 °C  hPa 3.2 Km/h N  mm  5.1 °C 6.8 °C
Sorgà ARPAV (VR) 25/07/24 05.30 23.6 °C 71 % 18.0 °C  hPa 10.4 Km/h NE 0.0 mm  23.3 °C 24.5 °C
Soriso (NO) 25/07/24 06.00 21.7 °C 84 % 18.9 °C 1011.3 hPa 0.0 Km/h W 0.0 mm  21.7 °C 24.1 °C
Stiore - Monteveglio (BO) 25/07/24 05.59 19.6 °C 89 % 17.7 °C 1008.5 hPa 0.0 Km/h SE 0.0 mm  19.6 °C 22.7 °C
Tambre Loc. Frassinei (BL) 25/07/24 05.46 16.8 °C 86 % 14.0 °C 0.0 hPa 0.0 Km/h - 0.0 mm  16.2 °C 17.7 °C
Taranto (TA) 25/07/24 05.59 26.7 °C 68 % 20.3 °C 1008.0 hPa 2.4 Km/h W 0.0 mm  26.7 °C 28.0 °C
Tarmassia (VR) 25/07/24 05.56 23.3 °C 70 % 17.5 °C 1013.1 hPa 5.8 Km/h ENE 0.0 mm  22.6 °C 25.7 °C
Teolo ARPAV (PD) 25/07/24 05.30 21.4 °C 81 % 18.0 °C 1012.6 hPa 5.0 Km/h NE 0.0 mm  21.4 °C 23.6 °C
Terento (BZ) 25/07/24 05.40 12.4 °C 70 % 7.1 °C 1015.8 hPa 2.2 Km/h N 0.0 mm  12.4 °C 15.6 °C
Tione (TN) 25/07/24 05.30 17.0 °C 99 % 16.8 °C  hPa 0.7 Km/h SSW 0.0 mm  16.8 °C 19.2 °C
Todi (PG) 25/07/24 05.55 21.9 °C 66 % 15.3 °C 1008.6 hPa 2.0 Km/h NNW 0.0 mm  21.9 °C 25.0 °C
Tombolo (PD) 25/07/24 05.59 24.2 °C 68 % 17.9 °C 1012.1 hPa 2.6 Km/h NE 0.0 mm  24.2 °C 25.4 °C
Tonadico loc. Castelpietra (TN) 25/07/24 05.30 15.1 °C  %  °C  hPa 2.2 Km/h NNE 0.0 mm  14.3 °C 15.5 °C
Torbole Belvedere (TN) 25/07/24 05.30 22.6 °C 76 % 18.1 °C  hPa 22.0 Km/h ENE 0.0 mm  21.5 °C 23.5 °C
Tortoreto (TE) 25/07/24 05.59 23.2 °C 70 % 17.4 °C 1010.2 hPa 11.3 Km/h WNW 0.0 mm  23.1 °C 25.7 °C
Trafoi Zaufenkofel (BZ) 25/07/24 05.40 7.7 °C 72 % 3.0 °C  hPa 6.5 Km/h SSE  mm  7.2 °C 8.7 °C
Trambileno (TN) 25/07/24 05.55 17.0 °C 69 % 11.3 °C 1011.4 hPa 0.0 Km/h ESE 0.0 mm  17.0 °C 18.0 °C
Tremalzo (TN) 24/07/24 10.30 16.7 °C 89 % 14.9 °C  hPa 6.1 Km/h SE 0.0 mm  12.1 °C 17.4 °C
Trento (TN) 25/07/24 05.55 20.8 °C 83 % 17.8 °C 1013.4 hPa 1.6 Km/h N 0.0 mm  20.4 °C 21.1 °C
Trento loc. Laste (TN) 25/07/24 05.30 19.9 °C 88 % 17.8 °C  hPa 2.2 Km/h NNW 0.0 mm  19.5 °C 21.0 °C
Trento loc. Roncafort (TN) 22/07/24 13.45 30.3 °C 48 % 18.0 °C  hPa  Km/h --- 0.0 mm  20.8 °C 30.6 °C
Treviso (TV) 25/07/24 05.54 22.3 °C 68 % 16.1 °C 1010.7 hPa 3.0 Km/h N 0.0 mm  22.3 °C 24.1 °C
Treviso ARPAV (TV) 25/07/24 05.30 21.5 °C 82 % 18.3 °C 1012.7 hPa  Km/h --- 0.0 mm  21.5 °C 24.1 °C
Tribano ARPAV (PD) 25/07/24 05.30 22.8 °C 84 % 19.9 °C  hPa 9.7 Km/h NE 0.0 mm  22.3 °C 23.2 °C
Tubre (BZ) 25/07/24 05.50 12.7 °C 80 % 9.3 °C 1015.6 hPa 9.0 Km/h SW 0.0 mm  12.6 °C 14.6 °C
Turcati ARPAV (VI) 25/07/24 05.30 17.9 °C 75 % 13.4 °C  hPa  Km/h --- 0.0 mm  17.9 °C 19.3 °C
Ultimo Cima di Fontana Bianca (BZ) 25/07/24 05.50 4.8 °C 60 % -2.3 °C  hPa 15.8 Km/h WNW  mm  4.4 °C 5.7 °C
Ultimo Fontana Bianca (BZ) 25/07/24 05.40 9.8 °C 94 % 8.9 °C 1016.2 hPa  Km/h --- 0.0 mm  9.5 °C 11.1 °C
Ultimo Pian dei Cavalli (BZ) 25/07/24 05.30 7.8 °C 94 % 6.9 °C  hPa 3.6 Km/h SSW  mm  7.7 °C 9.2 °C
Val di Vizze San Giacomo (BZ) 25/07/24 05.40 6.5 °C 100 % 6.5 °C 1020.1 hPa 2.2 Km/h ENE 0.0 mm  6.3 °C 9.0 °C
Val Genova loc. Malga Caret (TN) 25/07/24 05.30 11.6 °C 93 % 10.5 °C  hPa 2.2 Km/h WNW 0.0 mm  11.5 °C 15.4 °C
Val Lastaro (VI) 25/07/24 05.45 16.7 °C 72 % 11.7 °C 1011.0 hPa 0.0 Km/h SE 0.0 mm  16.7 °C 18.5 °C
Val Salatis ARPAV (BL) 25/07/24 05.00 9.4 °C 99 % 9.3 °C  hPa 4.0 Km/h SSW  mm  9.1 °C 10.4 °C
Valdobbiadene San Pietro di Barbozza (TV) 25/07/24 05.55 23.9 °C 56 % 14.6 °C 1015.2 hPa 14.5 Km/h N 0.0 mm  23.7 °C 25.6 °C
Valeggio sul Mincio ARPAV (VR) 25/07/24 05.30 21.8 °C 79 % 18.0 °C  hPa 0.0 Km/h N 0.0 mm  21.8 °C 23.3 °C
Valentano (VT) 25/07/24 06.02 22.6 °C 58 % 13.9 °C 1007.2 hPa 6.5 Km/h ENE 0.0 mm  22.6 °C 25.4 °C
Valenza (AL) 25/07/24 05.56 21.6 °C 83 % 18.6 °C 1009.9 hPa 1.6 Km/h NNW 0.0 mm  21.6 °C 25.7 °C
Valle del Cadore ARPAV (BL) 25/07/24 05.00 15.7 °C  %  °C  hPa 2.2 Km/h SSW 0.0 mm  15.7 °C 17.0 °C
Vallelunga Grub (BZ) 25/07/24 05.40 7.2 °C 100 % 7.2 °C 1018.0 hPa 6.1 Km/h NNE 0.0 mm  6.6 °C 8.5 °C
Valles (BZ) 25/07/24 05.50 11.1 °C 78 % 7.4 °C 1017.7 hPa 1.4 Km/h ESE 0.0 mm  10.6 °C 13.6 °C
Valli del Pasubio ARPAV (VI) 25/07/24 05.30 17.9 °C 82 % 14.8 °C  hPa 0.0 Km/h N 0.0 mm  17.9 °C 19.4 °C
Valli del Pasubio Contrà Pietra (VI) 25/07/24 05.59 18.4 °C 79 % 14.7 °C 1013.3 hPa 0.0 Km/h NE 0.0 mm  18.1 °C 19.1 °C
Valli del Pasubio loc. Gisbenti (VI) 25/07/24 04.53 17.7 °C 93 % 16.6 °C 967.2 hPa 1.1 Km/h NW 0.0 mm  17.7 °C 18.7 °C
Vandoies (BZ) 25/07/24 05.50 11.2 °C 100 % 11.2 °C 1017.6 hPa 0.4 Km/h ENE 0.0 mm  11.3 °C 14.9 °C
Vangadizza ARPAV (VR) 25/07/24 05.30 23.0 °C 75 % 18.3 °C  hPa 0.0 Km/h N 0.0 mm  23.0 °C 24.2 °C
Vazzola - Tezze ARPAV (TV) 25/07/24 05.30 22.8 °C 75 % 18.1 °C  hPa 0.0 Km/h N 0.0 mm  22.6 °C 24.3 °C
Venezia - Istituto Cavanis ARPAV (VE) 25/07/24 05.00 25.2 °C 74 % 20.2 °C 1012.5 hPa 8.3 Km/h NNE 0.0 mm  25.2 °C 26.7 °C
Verona Bgo Roma Comune ''Brugnoli'' (VR) 25/07/24 05.57 24.3 °C 54 % 14.4 °C 1011.2 hPa 0.0 Km/h --- 0.8 mm  22.4 °C 26.7 °C
Verona Bgo Venezia (iz3sly) (VR) 25/07/24 05.56 23.3 °C 68 % 17.1 °C 1009.8 hPa 0.0 Km/h ENE 0.3 mm  21.4 °C 26.6 °C
Verona Boscomantico (VR) 25/07/24 05.55 22.2 °C 82 % 18.9 °C 1013.1 hPa 0.4 Km/h WNW 3.4 mm  22.1 °C 26.8 °C
Verona Cadidavid2 (VR) 25/07/24 05.16 24.0 °C 66 % 17.2 °C 1011.8 hPa 3.2 Km/h E 0.3 mm  21.6 °C 26.5 °C
Verona Centro Comune ''Bellavite'' (VR) 25/07/24 05.57 25.8 °C 58 % 16.9 °C 1012.7 hPa 4.8 Km/h NE 1.2 mm  23.8 °C 27.8 °C
Verona Croce Bianca (VR) 25/07/24 06.00 20.3 °C 95 % 19.4 °C 1012.2 hPa 0.0 Km/h N 5.8 mm  20.1 °C 26.7 °C
Verona Golosine (VR) 25/07/24 06.00 25.3 °C 58 % 16.4 °C 1012.4 hPa 7.9 Km/h E 2.0 mm  23.2 °C 27.2 °C
Verona S. Caterina ARPAV (VR) 25/07/24 05.30 24.2 °C 61 % 16.2 °C  hPa 5.8 Km/h NNE 0.0 mm  22.5 °C 25.7 °C
Verona Saval3 (VR) 25/07/24 05.54 22.7 °C 74 % 17.8 °C 1013.9 hPa 4.0 Km/h NNW 1.9 mm  22.3 °C 27.3 °C
Verona Torricelle (VR) 25/07/24 05.55 24.4 °C 54 % 14.4 °C 1010.2 hPa 6.4 Km/h NNE 1.6 mm  23.2 °C 25.6 °C
Vicenza Campedello (VI) 25/07/24 05.45 21.6 °C 79 % 17.8 °C 1013.1 hPa 3.2 Km/h W 0.4 mm  20.9 °C 23.0 °C
Vicenza S. Lazzaro (VI) 25/07/24 05.56 21.0 °C 83 % 18.0 °C 1011.2 hPa 2.0 Km/h NNE 5.6 mm  21.0 °C 25.0 °C
Vicenza San Gaetano (VI) 24/07/24 21.40 25.0 °C 75 % 20.3 °C 1011.5 hPa 0.0 Km/h NNW 2.6 mm  22.2 °C 33.1 °C
Vidor (TV) 25/07/24 05.55 20.5 °C 86 % 18.1 °C 1012.1 hPa 2.0 Km/h SSW 0.0 mm  20.5 °C 23.4 °C
Vieste (FG) 25/07/24 05.59 27.1 °C 76 % 22.5 °C 1009.7 hPa 7.6 Km/h WNW 0.0 mm  26.7 °C 28.4 °C
Vigardolo (VI) 24/07/24 16.40 28.8 °C 61 % 20.4 °C 1009.3 hPa 0.4 Km/h NE 0.0 mm  22.3 °C 32.1 °C
Vigasio (VR) 25/07/24 05.50 24.2 °C 76 % 19.7 °C 1011.6 hPa 0.0 Km/h --- 0.0 mm  24.2 °C 26.2 °C
Vigasio2 (VR) 25/07/24 05.55 22.2 °C 85 % 19.6 °C 1012.3 hPa 3.2 Km/h NNE 0.0 mm  22.2 °C 25.3 °C
Villabartolomea (VR) 25/07/24 05.56 22.6 °C 81 % 19.2 °C 1010.2 hPa 3.2 Km/h NNE 0.0 mm  22.6 °C 24.9 °C
Villafranca di Verona (VR) 25/07/24 05.54 24.6 °C 72 % 19.2 °C 1015.9 hPa 2.2 Km/h WNW 0.0 mm  24.5 °C 26.6 °C
Villafranca di Verona ARPAV (VR) 25/07/24 05.30 21.5 °C 82 % 18.3 °C  hPa 4.0 Km/h NNW 0.0 mm  21.5 °C 23.5 °C
Villanova ARPAV (BL) 25/07/24 05.30 13.7 °C 100 % 13.7 °C  hPa 2.2 Km/h NNW 0.0 mm  13.6 °C 15.1 °C
Villar Perosa (TO) 25/07/24 05.55 18.7 °C 86 % 16.7 °C 1011.6 hPa 0.0 Km/h NE 0.0 mm  18.7 °C 20.3 °C
Viozene Toria (CN) 25/07/24 05.55 16.8 °C 73 % 11.9 °C 1012.0 hPa 4.0 Km/h N 0.0 mm  16.6 °C 18.3 °C
Vipiteno (BZ) 25/07/24 05.40 12.1 °C 85 % 9.7 °C 1018.0 hPa 6.1 Km/h W 0.0 mm  12.1 °C 15.9 °C
Viterbo Santa Barbara (VT) 25/07/24 05.59 21.7 °C 83 % 18.7 °C 1008.5 hPa 9.3 Km/h NNE 0.0 mm  21.7 °C 25.3 °C
Vittorio Veneto (TV) 25/07/24 00.25 25.2 °C 64 % 17.9 °C 1012.5 hPa 0.0 Km/h NNE 0.0 mm  25.1 °C 25.2 °C
Vittorio Veneto ARPAV (TV) 25/07/24 05.00 22.3 °C 74 % 17.4 °C  hPa 4.7 Km/h NNW 0.0 mm  22.2 °C 23.2 °C
Vittorio Veneto Fraz. Borgo Colesei (TV) 25/07/24 05.44 19.7 °C 86 % 17.3 °C 1015.4 hPa 0.5 Km/h S 0.0 mm  19.5 °C 21.2 °C
Vittorio Veneto Fraz. Ceneda (TV) 25/07/24 05.44 22.4 °C 70 % 16.7 °C 1011.2 hPa 0.0 Km/h NW 0.0 mm  22.4 °C 25.4 °C
Vittorio Veneto Loc. Serravalle (TV) 25/07/24 05.49 20.4 °C 85 % 17.8 °C 0.0 hPa 0.0 Km/h - 0.0 mm  20.4 °C 21.8 °C
Vittorio Veneto2 (TV) 25/07/24 05.44 23.1 °C 65 % 16.1 °C 1012.5 hPa 1.4 Km/h NE 0.0 mm  22.9 °C 26.0 °C
Volargne (VR) 25/07/24 05.56 18.4 °C 93 % 17.2 °C 1013.4 hPa 0.0 Km/h N 0.0 mm  18.3 °C 21.9 °C
Volpago del Montello (TV) 22/07/24 19.00 70.1 °C 1 % -8.8 °C 1010.9 hPa 0.0 Km/h --- 7.1 mm  23.1 °C 70.1 °C
Volpago del Montello ARPAV (TV) 25/07/24 05.30 23.9 °C 67 % 17.4 °C  hPa 7.6 Km/h NNE 0.0 mm  23.6 °C 25.3 °C
Zevio (VR) 25/07/24 05.55 25.1 °C 55 % 15.4 °C 1011.3 hPa 1.1 Km/h W 0.0 mm  23.0 °C 26.5 °C
Zevio Centro (VR) 25/07/24 05.56 25.6 °C 57 % 16.4 °C 1012.1 hPa 4.8 Km/h NE 0.0 mm  24.5 °C 26.7 °C
Zimella (VR) 25/07/24 05.56 24.3 °C 67 % 17.7 °C 1013.2 hPa 0.6 Km/h E 0.0 mm  21.6 °C 24.4 °C
 
(*) = Precipitazioni nelle ultime 24h.
Dati non aggiornati nelle ultime 2h.
   
In collaborazione con:
 
Top! Top!